Biedriem

VSK Noskrien twitter
VSK Noskrien Facebook profils

Polar M400 HR
Ūdensizturīgs GPS pulsometrs ikdienas treniņiem un sportiskiem sasniegumiem.
EUR 189.00


Noskrietais


Pēdējās nedēļas skrējieni grupai
Datums Notikums Skrējējs Km Laiks Pulss min/km km/h Apavi
21/08/17 pirmdienas rīta parastā pusīte aiaiaigar 21.12 1:48:10 05:07 11.72 ir
21/08/17 Rīts, īsais jdex 5.58 34:18 06:08 9.76 ir
21/08/17 Running Aivysuperman 10.25 55:54 132 05:27 11.00 ir
21/08/17 Rīts Ainars 10.00 50:00 05:00 12.00 ir
21/08/17 pēc  Selijas  Perles Aleks Kor 10.29 1:15:17 112 07:18 8.20 ir
21/08/17 rīta pikols 10.35 1:14:19 119 07:10 8.36 ir
21/08/17 Rīts AndrisJ 5.19 30:40 05:54 10.15 ir
20/08/17 9.77 und 9.77 50:16 05:08 11.66 ir
20/08/17 1.25 und 1.25 07:00 05:36 10.71 ir
20/08/17 1.04 und 1.05 06:12 05:54 10.16 ir
20/08/17 Pa rajonu lielaa saule 9.16 1:05:45 07:10 8.36 ir
20/08/17 Skrējiens Razer 10.60 1:03:09 05:57 10.07
20/08/17 Skrējiens Razer 12.00 1:11:33 05:57 10.06
20/08/17 W13D91 oldys34 30.55 3:24:09 142 06:40 8.98 ir
20/08/17 Kopā ar mīļoto sievieti sm72 7.36 40:56 05:33 10.79 ir
20/08/17 Skrējiens alisevitola 6.17 46:59 07:36 7.88
20/08/17 Skrējiens linda023 9.80 1:11:38 07:18 8.21 ir
20/08/17 Skrējiens JanJ 11.04 1:01:59 05:36 10.69
20/08/17 Skrējiens Highlanders 7.06 38:54 05:30 10.89 ir
20/08/17 Skrējiens gudeens 5.17 27:09 05:15 11.43
20/08/17 Skrējiens guntars.bumans 26.00 2:42:12 06:14 9.62
20/08/17 Skrējiens Jānis_O 2.61 13:25 05:08 11.67 ir
20/08/17 Skrējiens AijaB 5.23 29:00 05:32 10.82 ir
20/08/17 Skrējiens sominens 9.59 58:56 06:08 9.76 ir
20/08/17 5km Z1 Recovery Māris91 5.05 32:29 125 06:25 9.33 ir
20/08/17 Skrējiens ezisskrien 7.26 39:07 05:23 11.14 ir
20/08/17 Svētdienis Rainy777 10.00 1:09:00 06:54 8.70 ir
20/08/17 Skrējiens raraitis 19.42 1:29:12 04:35 13.06 ir
20/08/17 Skrējiens svans 10.03 51:24 05:07 11.71 ir
20/08/17 Skrējiens SITYZOR1 6.01 38:05 06:20 9.47
20/08/17 Viegla atskriešanās līdz Ozīšiem nopeldēties Mārča pavadībā. Ainīc 12.01 1:17:43 126 06:28 9.27 ir
20/08/17 Skrējiens Janile 10.45 53:19 05:06 11.76
20/08/17 Skrējiens Zakevics 8.12 50:49 06:15 9.59
20/08/17 Skrējiens uzzy 15.18 1:17:29 05:06 11.75 ir
20/08/17 Skrējiens Rudix 3.00 13:06 04:22 13.74 ir
20/08/17 nedaudz paskrienam mimite 3.75 20:44 147 05:31 10.85 ir
20/08/17 Skrējiens Neijs 1.00 06:16 06:16 9.57 ir
20/08/17 Skrējiens forshais1 12.01 1:13:37 06:07 9.79 ir
20/08/17 Maratons kad tuvāk nāk, jāpaskrien kas garāks. Ginc 26.00 2:50:59 06:34 9.12 ir
20/08/17 Skrējiens Birkofs 8.18 46:07 05:38 10.64
20/08/17 Skrējiens mriden 11.64 1:12:56 06:15 9.58
20/08/17 Skrējiens kalvicc94 10.87 59:59 05:31 10.87 ir
20/08/17 Skrējiens des 5.24 32:32 06:12 9.66 ir
20/08/17 Skrējiens Sandijs 6.09 35:02 05:45 10.43 ir
20/08/17 Skrējiens Martinits1 7.66 38:30 05:01 11.94 ir
20/08/17 Skrējiens edžus11 8.00 37:35 04:41 12.77 ir
20/08/17 Skrējiens Elhana 3.30 25:10 07:37 7.87 ir
20/08/17 Skrējiens experc 23.20 2:30:22 06:28 9.26 ir
20/08/17 Skrējiens migors 11.00 1:15:43 06:53 8.72
20/08/17 Skrējiens KarīnaK 15.17 1:33:05 06:08 9.78 ir
20/08/17 Skrējiens sjordzis 1.88 20:08 10:42 5.60 ir
20/08/17 Skrējiens sjordzis 0.77 09:08 11:51 5.06 ir
20/08/17 Skrējiens ccuguns 12.38 1:11:15 05:45 10.43 ir
20/08/17 Skrējiens raimis91 3.79 17:24 04:35 13.07 ir
20/08/17 Skrējiens ŽagarsĢ 14.47 1:17:43 05:22 11.17 ir
20/08/17 Skrējiens xorix 4.02 21:22 05:18 11.29 ir
20/08/17 Skrējiens burunduks 10.01 58:22 05:49 10.29 ir
20/08/17 Skrējiens NITRO 6.26 34:37 05:31 10.85 ir
20/08/17 Vāveres ielūdz no rītiem #48 maziinais 14.00 1:20:31 05:45 10.43 ir
20/08/17 Svētdienas mierīgais noris 11.32 56:17 04:58 12.07 ir
20/08/17 Kadaga Geo 10.00 47:58 149 04:47 12.51 ir
20/08/17 Skrējiens Evija Miglane 12.31 1:18:00 139 06:20 9.47 ir
20/08/17 {~11:00} LSC šosejas čempionāts, 5. kārta (Uzvaras parkā) Andulis 30.00 2:40:29 05:20 11.22
20/08/17 atjaunošanās tomick 16.00 1:40:25 126 06:16 9.56 ir
20/08/17 trenins Sikais77 8.20 46:12 142 05:38 10.65 ir
20/08/17 Skrienam Mērsragā 2 gskunstins 8.82 50:14 05:41 10.53 ir
20/08/17 Atsildīšanās jestrais 3.99 26:27 143 06:37 9.05 ir
20/08/17 Intervāli 1x10 pludmalē jestrais 4.13 22:30 151 05:26 11.01 ir
20/08/17 Iesildīšanās jestrais 2.58 17:26 06:45 8.88 ir
20/08/17 Skrèjiens AgneseGin 11.21 1:12:00 154 06:25 9.34 ir
20/08/17 Svētdienas piečuks Freya 5.02 36:33 07:16 8.24 ir
20/08/17 123 rotācijukaraliene 3.12 18:42 05:59 10.01 ir
20/08/17 Apkārt Tosmares ezeram. Uldzha 27.38 2:59:12 06:32 9.17 ir
20/08/17 Koka kājas ar sieviņu. laacis1981 10.50 1:02:59 05:59 10.00 ir
20/08/17 (82.0) taciņas, veloceliņš Kampars 10.50 51:49 04:56 12.16
20/08/17 Skrējiens Kru 11.35 56:14 04:57 12.11 ir
20/08/17 20.08 didzisc 9.70 1:01:41 154 06:21 9.44 ir
20/08/17 Weekend run vetrasputns 17.00 1:34:25 151 05:33 10.80
20/08/17 2017 Islandsbanki Reykjavik Marathon izbadējies 42.47 3:25:38 158 04:50 12.39 ir
20/08/17 Lēnais svētdienas skrējiens Roberto 5 18.01 1:31:39 05:05 11.79
20/08/17 20.00.Atjaunošanās skrējiens MAKRO 10.00 51:09 05:06 11.73 ir
20/08/17 Skrējiens 10.00 51:41 05:10 11.61 ir
20/08/17 Skrējiens Lauris 14.76 1:54:14 130 07:44 7.75 ir
20/08/17 Ar sunenēm Ecadla 5.05 26:18 05:12 11.52 ir
20/08/17 Treniņš Richa_K 18.07 1:36:28 135 05:20 11.24 ir
20/08/17 Kad nekādi nevari izšķirties pagulēt vai iet paskriet pirms darba James87 11.00 49:56 135 04:32 13.22 ir
20/08/17 Svētdienas garais ar tēti: Liepāja - Grobiņa - Liepāja KarlisBumans 26.00 2:42:15 132 06:14 9.61 ir
20/08/17 atsākšana un ppelde edGars 5.00 32:02 132 06:24 9.37 ir
20/08/17 Skrien edg 11.55 1:09:26 06:00 9.98 ir
20/08/17 Vakara skrējiens riebīgais 3.30 17:35 05:19 11.26 ir
20/08/17 Skrējiens Duuu-da 10.00 1:02:01 06:12 9.67 ir
20/08/17 11:10, Cik uzreiz briivi un viegli skrienaas, kad saule galvu necepina, baigi patiikami. Dziņa 7.50 46:36 148 06:12 9.66 ir
20/08/17 Skrējiens Laaurappeeterzone 10.54 1:03:00 130 05:58 10.04 ir
20/08/17 Vēsais vakarriksis EvijaK 7.42 56:11 07:34 7.92
20/08/17 Milzkalna stirnu buks ciks 22.47 2:18:59 06:11 9.70 ir
20/08/17 Vakara izkustēšanās Edmunds 10.40 54:12 05:12 11.51 ir
20/08/17 skrienu Jurs 6.35 38:19 06:02 9.94 ir
20/08/17 ... in 6.65 1:00:06 09:02 6.64 ir
20/08/17 ... in 25.53 2:20:01 05:29 10.94 ir
20/08/17 Pludmale. Rainers 11.76 1:10:22 05:59 10.03 ir
20/08/17 NBT r 5 K-ens 6.03 41:33 06:53 8.71 ir
20/08/17 ramava+tilti bredato 16.96 1:30:45 148 05:21 11.21 ir
20/08/17 Rīts AndrisJ 4.14 24:04 05:48 10.32 ir
20/08/17 Riita rosme azhons 1.00 06:00 06:00 10.00 ir
20/08/17 Ar Brendonu atskrienamies Ewiaa 5.30 35:01 139 06:36 9.08 ir
20/08/17 ieskrienu rudenī neirula 10.52 1:16:00 152 07:13 8.31 ir
20/08/17 Apkārt pilsētai spruuds 23.00 2:08:53 05:36 10.71
20/08/17 Lietus laikā forši skrienas Heņča 15.30 1:20:33 05:15 11.40 ir
20/08/17 #39 SelvaLo 5.45 36:05 161 06:37 9.06 ir
20/08/17 Skrējiens Montekatini Terme, Itālija Dzintars 5.28 28:37 05:25 11.07 ir
20/08/17 rudenīgs laiciņš Flrx 12.46 1:00:28 04:51 12.36 ir
20/08/17 (90.5) Trīs Daugavtiltu skrējiens Aivars703 26.51 2:48:59 143 06:22 9.41 ir
20/08/17 Pa meža ceļu Pičuks Dz 3.10 20:18 06:32 9.16
20/08/17 pludmale teicamnieks 10.00 ir
20/08/17 Meža lociņš no otras puses englishteacher 13.03 1:03:38 04:53 12.29 ir
20/08/17 Skrējiens MartaK 10.30 1:08:11 166 06:37 9.06
20/08/17 Lūša buks vitaminka D 31.70 3:13:01 154 06:05 9.85 ir
20/08/17 no festivāla ar rozā lietussargu rokā Ugisdatavs 11.00 56:00 140 05:05 11.79 ir
20/08/17 No rīta savos laukos DK86 12.00 1:05:00 137 05:25 11.08
20/08/17 Līdz Lytham kara festivālam Ugisdatavs 11.00 58:20 140 05:18 11.31 ir
20/08/17 Pēcstirnubuka recovery LindaL 12.10 1:06:23 05:29 10.94 ir
20/08/17 30.00 km zvaigzne 30.00 2:46:42 05:33 10.80 ir
20/08/17 kross bunfunk 22.00 1:33:44 136 04:15 14.08
20/08/17 svētdienas loks pa Jelgavu un Ozolniekiem Diddi 19.94 2:17:20 06:53 8.71 ir
20/08/17 Ezers IlzeP 7.80 45:38 05:51 10.26 ir
20/08/17 Ziedoņdarzā Andrejs 5.00 20:10 04:02 14.88 ir
20/08/17 Recovery Ina 4.00 30:13 143 07:33 7.94 ir
20/08/17 Āžu kalna zaķis JurRo 14.00 1:45:39 07:32 7.95 ir
20/08/17 Āžu kalna zaķis Sanča_Ro 14.15 1:52:54 07:58 7.52 ir
20/08/17 2017_08_20 - W małym deszczyku  (5 km) C-moll`a 5.00 28:58 05:47 10.36 ir
20/08/17 118. Didzis 22.07 ir
20/08/17 16.16M cumulus 26.00 2:04:16 159 04:46 12.55 ir
20/08/17 71.Skanste (19^) aivars33 23.00 2:27:20 06:24 9.37 ir
20/08/17 Bc2 Lielkuilis 9.10 46:06 05:03 11.84 ir
20/08/17 Jahtu osta Kaut kas rapo pa roku 9.61 52:42 05:29 10.94 ir
20/08/17 kontrolskrējiens LSC čempionāts guncha 30.00 1:55:23 03:50 15.60 ir
20/08/17 157. ilvarito 9.21 45:15 04:54 12.21 ir
20/08/17 Running Aivysuperman 5.32 27:17 05:07 11.70 ir
20/08/17 Gar jūriņu pa baso Aļona 15.51 1:39:22 145 06:24 9.37 ir
20/08/17 Skrejiens VP13 6.15 31:19 05:05 11.78 ir
20/08/17 Gar jūriņu pa baso ar sieviņu Raibacainais Ezītis 15.60 1:39:08 06:21 9.44 ir
20/08/17 11.00.LSC čempionāts kāpjošā tempā/ (trase nav precīza) MAKRO 30.00 1:53:39 160 03:47 15.84 ir
20/08/17 Basām Siguldā ar radiem einmed 12.19 1:31:48 123 07:31 7.97 ir
20/08/17 Bc4 Lielkuilis 11.91 58:14 04:53 12.27 ir
20/08/17 12:03-11:45-11:42-12:02 andris13 10.85 47:33 04:22 13.69 ir
20/08/17 Pēcbuka pastaiga ar vīru Rozamunde 11.51 1:23:36 07:15 8.26
20/08/17 Medības 89: XXVIII Jay-P 7.00 40:00 129 05:42 10.50 ir
20/08/17 Upe (92,5) Aivars 15.66 1:52:06 07:09 8.38 ir
20/08/17 dienas pikols 30.70 3:22:01 132 06:34 9.12 ir
20/08/17 Ziedondārzā. Inzy 15.14 1:32:52 06:08 9.78 ir
20/08/17 Boston Scientific Half Maraton gintsp 21.10 2:04:31 05:54 10.17 ir
20/08/17 Skrējiens buraam 8.73 57:38 06:36 9.09
20/08/17 Sāpīga rīta izkaustēšanās Raitis 12.00 1:04:28 05:22 11.17 ir
20/08/17 Bc2 Lielkuilis 14.11 1:11:34 05:04 11.83 ir
20/08/17 Bc8 Lielkuilis 7.22 43:05 05:58 10.05 ir
20/08/17 Bc6 Lielkuilis 12.00 1:01:28 05:07 11.71 ir
20/08/17 meklēju polar 14.92 1:20:30 154 05:23 11.12 ir
20/08/17 Rīta iekustēšanās Cassandra 5.90 37:16 06:18 9.50 ir
20/08/17 mežaparks viesis 14.30 1:13:30 152 05:08 11.67 ir
20/08/17 Svētdiena Skultē.10:12 ErvinsK 12.01 1:31:46 07:38 7.85 ir
20/08/17 Skrējiens eziits 4.36 31:25 132 07:12 8.33 ir
20/08/17 stadions lynx21 13.00 1:22:58 06:22 9.40
20/08/17 tren. Girts76 7.25 39:29 05:26 11.02 ir
20/08/17 Sauleskalns Kuks 16.10 1:28:00 142 05:27 10.98 ir
20/08/17 apļi LEICHA 10.10 1:37:20 09:38 6.23
20/08/17 Līdz Vecāķiem m.jordan 8.44 41:15 04:53 12.28 ir
20/08/17 Rīta riksis ar plunkšķi Marko 6.50 44:23 06:49 8.79 ir
20/08/17 Skrējiens Dubultaģente 21.74 2:12:18 152 06:05 9.86 ir
20/08/17 Milzkalna Stirnu buks Voldžiks 21.10 1:46:30 179 05:02 11.89 ir
20/08/17 st. kveks 3.00 10:01 03:20 17.97
20/08/17 iesild.+atsild. kveks 12.00
20/08/17 Atsildīšanās Uzvaras parkā OreMan 3.00 16:06 05:22 11.18 ir
20/08/17 Lēnais skrējiens mežā Roziiite 6.00 40:58 06:49 8.79 ir
20/08/17 LSC šosejas skrējienu 5. posms OreMan 5.02 17:31 03:29 17.20 ir
20/08/17 Iesildīšanās Uzvaras parkā OreMan 3.00 14:28 04:49 12.44 ir
20/08/17 Platania pkm run lvingr 7.50 49:45 120 06:38 9.05
20/08/17 Steady 14 neomax 17.02 1:47:02 134 06:17 9.54 ir
20/08/17 Paskrējiens Shembis 10.00 58:35 138 05:51 10.24 ir
20/08/17 sb Desperado 31.50 3:45:00 153 07:08 8.40 ir
20/08/17 Skrējiens Otomere 14.87 1:24:03 05:39 10.62 ir
20/08/17 Stīvums skai-tlot-ajs 4.83 30:03 06:13 9.64 ir
20/08/17 (82.0) taciņas, šoseja Kampars 9.20 48:35 05:16 11.36
20/08/17 NRR 57 lerychv 19.84 1:39:10 132 04:59 12.00 ir
20/08/17 Skrējiens- Granada Chuncha 12.00 1:09:22 05:46 10.38 ir
20/08/17 Svētdienas rīts Naurītis 8.07 45:26 05:37 10.66 ir
20/08/17 20.08 jurdoms 13.28 1:33:46 143 07:03 8.50
20/08/17 6:16/hr130 purene_vulgaris (parasta) 11.60 1:15:59 134 06:33 9.16 ir
20/08/17 Stirnu buks Milzkalne katarakt 21.33 2:40:40 07:31 7.97
20/08/17 Skrējiens Alvals 15.94 1:33:16 05:51 10.25 ir
20/08/17 Septiņpadsmitais ZaNelke 10.05 1:06:29 158 06:36 9.07 ir
20/08/17 Skrējiens RaitisR 2.90 20:59 07:14 8.29 ir
20/08/17 Rīta lēnītis :), ir arī šonedēļ 101km :) Gīča 22.00 1:50:49 136 05:02 11.91
20/08/17 Skrējiens SITYZOR1 7.61 40:53 05:22 11.17
20/08/17 Skrējiens Uldis Nipers 6.06 30:32 05:02 11.91
20/08/17 Skrējiens garaissss 10.45 58:38 141 05:36 10.69 ir
20/08/17 1,7 vladis99 7.60 45:35 151 05:59 10.00 ir
20/08/17 Rīta rosme Ginchaa 11.12 1:12:23 126 06:30 9.22
20/08/17 ZK sv 7.30 maruks 11.00 1:02:48 128 05:42 10.51
20/08/17 Uz papeldēšanu seismologs 4.29 23:36 05:30 10.91 ir
20/08/17 Skrējiens vitjka 10.50 50:37 04:49 12.45 ir
20/08/17 Āžu kalna lūsis AndrisJ 30.01 3:35:32 156 07:10 8.35 ir
20/08/17 Bc00 Lielkuilis 27.20 2:49:31 06:13 9.63 ir
19/08/17 9.33 und 9.33 51:26 05:30 10.88 ir
19/08/17 Pasaules rogaininga čempionāts 24 h, 2. aplis Alarion 18.60 5:10:22 16:41 3.60 ir
19/08/17 W13D90 oldys34 6.35 42:16 139 06:39 9.01 ir
19/08/17 Jelgavas garais sm72 21.36 2:00:01 05:37 10.68 ir
19/08/17 Skrējiens Stupinss 21.11 2:05:24 05:56 10.10 ir
19/08/17 Skrējiens niklacis 1.18 15:14 12:54 4.65 ir
19/08/17 Skrējiens niklacis 5.77 1:33:49 16:15 3.69 ir
19/08/17 Skrējiens Tārps 21.40 2:17:00 06:24 9.37 ir
19/08/17 Skrējiens art.is 21.69 2:36:49 07:13 8.30 ir
19/08/17 Milzkalna-Āžukalna Lūsis! Ewis 31.30 4:25:00 178 08:27 7.09 ir
19/08/17 Skrējiens uzzy 1.82 10:46 05:54 10.14 ir
19/08/17 Sestdienis Rainy777 4.00 30:00 07:30 8.00 ir
19/08/17 Skrējiens maaris_m 18.33 1:48:47 05:56 10.11 ir
19/08/17 Skrējiens ZZ88 21.46 2:38:14 07:22 8.14 ir
19/08/17 Skrējiens robis 13.61 1:40:23 07:22 8.13 ir
19/08/17 Skrējiens Krastiņš 6.76 1:20:21 11:53 5.05
19/08/17 Skrējiens sjordzis 3.50 33:18 09:30 6.31 ir
19/08/17 Skrējiens sjordzis 3.93 55:31 14:07 4.25 ir
19/08/17 Skrējiens ccuguns 10.86 1:07:30 06:12 9.65 ir
19/08/17 Orientēšanās xorix 79.29 7:47:36 05:53 10.17 ir
19/08/17 Skrējiens MIk 21.43 2:20:12 06:32 9.17 ir
19/08/17 Skrējiens Evija Miglane 16.16 1:52:05 140 06:56 8.65 ir
19/08/17 Karsts Geo 6.10 34:35 135 05:40 10.58 ir
19/08/17 WRC2017 EdgarsBR 108.20 23:55:00 13:15 4.52
19/08/17 Skrējiens Kru 8.66 45:00 05:11 11.55 ir
19/08/17 IM Kalmar 2017 - skriešanas segments GintsB 42.20 4:10:37 124 05:56 10.10
19/08/17 Ar sunenēm Ecadla 5.31 32:06 06:02 9.93 ir
19/08/17 Iesildīšanās Štokenbekas apkārtnē voļda 1.00 05:53 05:53 10.20 ir
19/08/17 Milzkalnes Stirnu buks seriāls voļda 30.00 2:44:50 05:29 10.92 ir
19/08/17 buks alx 20.90 1:49:58 05:15 11.40 ir
19/08/17 Mucenieki, Sunīši, Jugla forest. Easy run including several short pick-ups ansiso 13.50 ir
19/08/17 Stirnu buks Milzkalnē, 9.vieta kopvērtējumā James87 13.60 58:53 04:19 13.86 ir
19/08/17 Iesildīšanās/atsildīšanās Stirnu Bukā Milzkalnē James87 6.40 34:55 05:27 11.00 ir
19/08/17 Milzkalne Richa_K 13.87 1:13:57 162 05:19 11.25 ir
19/08/17 skrējiens Kalnu Dace 8.00 48:50 145 06:06 9.83 ir
19/08/17 Treniņš Jan4uks 14.00 1:25:22 168 06:05 9.84
19/08/17 95.0 Ønske 21.51 2:57:19 141 08:14 7.28 ir
19/08/17 Vēls skrējiens riebīgais 3.30 18:35 05:37 10.65 ir
19/08/17 Gatavošanās SKM Trakais 31.00 2:30:00 04:50 12.40 ir
19/08/17 SB Milzkalnē Lūsis Jānis_v 31.00 3:04:57 147 05:57 10.06 ir
19/08/17 Stirnu Buks sergejs1 13.95 1:40:12 07:10 8.35 ir
19/08/17 Pasaules čempionāts rogainingā Latgalē Gandzaitis 78.38 23:44:46 18:10 3.30 ir
19/08/17 Riita rosme azhons 1.00 06:00 06:00 10.00 ir
19/08/17 Stirnu buks SignVi 21.36 2:33:47 07:11 8.33
19/08/17 Mazais spruuds 4.00 22:20 05:35 10.75
19/08/17 Stirnu Buks Milzkalne ugis_v 21.39 2:31:00 170 07:03 8.50 ir
19/08/17 Milzkalna - Āžu kalna Stirnu buks thunder man 30.35 3:31:17 06:57 8.62 ir
19/08/17 Milzkalna - Āžu kalna SB Zaķis englishteacher 13.57 1:11:39 05:16 11.36 ir
19/08/17 Milzkalnes Stirnu buks | Lūsis ! Mazzinsh 30.84 3:51:39 07:30 7.99
19/08/17 Alle hop Milzkalne Arle 21.62 2:42:18 168 07:30 7.99 ir
19/08/17 Alle hop Arle 1.02 07:28 127 07:19 8.20 ir
19/08/17 stirnu buks tukums Ģirtiņš 5.00 28:42 05:44 10.45 ir
19/08/17 Stirnu buks Milzkanlē, lūsis LindaL 30.59 3:35:20 07:02 8.52 ir
19/08/17 Stirnu buks Klinta 13.58 1:19:30 05:51 10.25
19/08/17 Milzkalna-Āžu kalna Stirnu buks Edmunds 30.57 3:29:02 06:50 8.77 ir
19/08/17 iesild.1200m+1000m+800m+400m/3min+atsild. bunfunk 10.60 44:00 147 04:09 14.45
19/08/17 Skrējiens Montekatini Termo, Itālija  Dzintars 10.10 58:48 05:49 10.31 ir
19/08/17 Stirnu buka zaķis Laaurappeeterzone 13.50 1:18:48 05:50 10.28 ir
19/08/17 run JānisV 13.64 1:00:58 174 04:28 13.42 ir
19/08/17 Dzimšanas dienas Stirnubuka zaķis Ina 13.58 1:34:01 187 06:55 8.67 ir
19/08/17 Milzkalnes stirnu buks ezisskrien 21.00 2:12:45 06:19 9.49 ir
19/08/17 Āža kalna Stirnu Buks(DNF) GačusSkrunda 20.00 ir
19/08/17 Šlokenbekas lūsis Dzo 30.60 3:07:23 06:07 9.80 ir
19/08/17 Milzkalne divemaster 13.56 1:31:40 160 06:45 8.88 ir
19/08/17 Stirnu buks Milzkalnē ai-jucis 21.34 2:39:22 187 07:28 8.03 ir
19/08/17 Stirnu buks Milzkalnē. Buciņš.  SelfijuPavēlniece 21.46 2:26:00 183 06:48 8.82 ir
19/08/17 Milzkalna-Āžu kalna Stirnu buks (mana debija SB skrējienos) Raitis 30.37 3:39:46 07:14 8.29 ir
19/08/17 Iesildīšanās  SelfijuPavēlniece 1.30 09:30 154 07:18 8.21 ir
19/08/17 Milzkalna SB eziits 21.15 2:58:33 151 08:26 7.11 ir
19/08/17 Stirnu Buks ilZZuks 21.33 2:17:09 06:25 9.33 ir
19/08/17 Milzkalnes-Āžu kalna Lūsis borga 30.39 3:03:21 172 06:01 9.94 ir
19/08/17 Iesildīšanās + atsildīšanās borga 3.59 20:52 145 05:48 10.32 ir
19/08/17 Ar meitenēm pa spirāli uz torni EduardsRu 1.01 07:58 07:53 7.61 ir
19/08/17 Stirnu buks - zaķis Lauma 13.54 1:29:11 162 06:35 9.11 ir
19/08/17 Platania pkm run lvingr 10.00 1:11:00 145 07:06 8.45 ir
19/08/17 Warmup cooldown runnerchick 8.00 45:00 127 05:37 10.67 ir
19/08/17 9x800/400@3:10 airport road runnerchick 10.80 55:00 156 05:05 11.78 ir
19/08/17 WRC 2017, Rāzna2, +15C... +27C sola.scriptura 18.80 4:48:47 123 15:21 3.91 ir
19/08/17 64 arturs.locmelis 21.58 1:44:30 169 04:50 12.39 ir
19/08/17 Stirnubuks july 13.60 1:53:11 08:19 7.21 ir
19/08/17 Stirnu buks! Milzkalne. muskulītis 5.00 28:42 177 05:44 10.45 ir
19/08/17 Stirnu buks. rotācijukaraliene 4.83 24:55 05:09 11.63 ir
19/08/17 Stirnu Buks "Milzkalne" 5.posms Jolis 21.29 1:53:38 05:20 11.24
19/08/17 Stirnu buks. laacis1981 31.11 3:10:04 06:06 9.82 ir
19/08/17 #30 Stirnu buka Zaķis Zazuuu 13.48 1:39:22 167 07:22 8.14 ir
19/08/17 Stirnu buks 5. posms Āžu kalns tomick 21.34 1:58:35 171 05:33 10.80 ir
19/08/17 Milzkalnes Stirnu buka Vāvere eees 5.00 29:08 05:49 10.30 ir
19/08/17 Stirnubuka zaķis. Kaut kas rapo pa roku 13.55 1:10:44 05:13 11.49 ir
19/08/17 Āžu kalns Stirnu Buks Māris91 21.84 1:59:26 174 05:28 10.97 ir
19/08/17 Iesildamies Āžu kalna Bukam Māris91 2.74 19:54 132 07:15 8.26 ir
19/08/17 Samsø Marathon EduardsRu 21.10 1:54:08 05:24 11.09 ir
19/08/17 Skrējiens RiKa 30.86 2:38:28 05:08 11.68
19/08/17 Iesildīšanās vl80 1.11 07:14 135 06:30 9.21 ir
19/08/17 Milzkalnes stirnu buks vl80 21.24 2:11:08 164 06:10 9.72 ir
19/08/17 Stirnubuks, milzkalns, susurs alushox 0.82 06:01 127 07:20 8.18 ir
19/08/17 Āžu kalna Lūsis flower 30.45 3:56:28 148 07:45 7.73 ir
19/08/17 Karstais Āzis jdex 21.30 2:36:32 07:20 8.16 ir
19/08/17 Stirbuks Milzkalnē Maikijs 21.53 2:31:54 07:03 8.50
19/08/17 #esesmustirnubuks Renee 13.50 1:37:52 165 07:14 8.28 ir
19/08/17 Bc2 Lielkuilis 11.90 57:20 04:49 12.45 ir
19/08/17 Bc2 Lielkuilis 7.95 41:17 05:11 11.55 ir
19/08/17 Bc7+bc8 Lielkuilis 7.50 46:20 06:10 9.71 ir
19/08/17 Bc2 Lielkuilis 8.20 40:55 04:59 12.02 ir
19/08/17 Bc5 Lielkuilis 6.30 34:32 05:28 10.95 ir
19/08/17 Bc00 Lielkuilis 23.47 1:57:02 04:59 12.03 ir
19/08/17 SB āžu Ugis 21.82 2:08:41 158 05:53 10.17 ir
19/08/17 Medības 89: XXVII Jay-P 30.03 3:48:39 142 07:36 7.88 ir
19/08/17 Skrējiens gudeens 0.85 07:37 08:57 6.70
19/08/17 Skrējiens gudeens 0.68 12:17 18:03 3.32
19/08/17 Skrējiens gudeens 30.64 2:34:08 05:01 11.93
19/08/17 Skrējiens gudeens 0.63 04:45 07:32 7.96
19/08/17 Skrējiens Marchello89 14.01 1:09:39 04:58 12.07
19/08/17 Skrējiens ramiism 0.79 04:10 05:16 11.38 ir
19/08/17 Skrējiens ramiism 13.64 1:14:08 05:26 11.04 ir
19/08/17 Skrējiens anup 4.11 21:32 05:14 11.45 ir
19/08/17 Skrējiens anup 1.77 10:00 05:38 10.62 ir
19/08/17 Skrējiens GvidoB 23.19 3:08:56 08:08 7.36 ir
19/08/17 Skrējiens Martinits1 14.38 1:14:01 05:08 11.66 ir
19/08/17 Skrējiens SITYZOR1 5.01 32:35 06:30 9.23
19/08/17 Skrējiens Arweed 30.36 3:02:59 06:01 9.96 ir
19/08/17 Skrējiens eurosaj 21.13 2:12:25 06:16 9.57 ir
19/08/17 Skrējiens edžus11 30.59 3:34:29 07:00 8.56 ir
19/08/17 Skrējiens Mārtiņš Pakulis 21.44 2:39:15 07:25 8.08 ir
19/08/17 Skrējiens Jacisss 30.36 4:52:30 09:38 6.23 ir
19/08/17 Milzkalnu Stirnu buks - LŪSIS RaivisR 31.19 2:32:55 180 04:54 12.24 ir
19/08/17 Skrējiens Jānis88 21.32 2:59:29 08:25 7.13 ir
19/08/17 Skrējiens Seventyfive 21.90 3:02:38 08:20 7.19 ir
19/08/17 Stirnu Buks forshais1 30.32 3:25:35 06:46 8.85 ir
19/08/17 Skrējiens johaidi 21.10 2:00:17 05:42 10.53 ir
19/08/17 Skrējiens dzelksnite 13.60 1:21:50 06:01 9.97 ir
19/08/17 Skrējiens I_V 30.62 2:51:16 05:35 10.73 ir
19/08/17 Skrējiens I_V 4.72 36:56 07:49 7.67 ir
19/08/17 Āžu kalna Stirnubuka lūsis des 30.52 2:57:45 05:49 10.30 ir
19/08/17 Skrējiens Mairita 13.73 1:32:18 06:43 8.93
19/08/17 Izlocot kājas mierīgā tempā līdz Milzkalnes dīķim nopeldēties. Ainīc 2.01 13:54 145 06:54 8.68 ir
19/08/17 Milzkalna/Āžu kalna Stirnu buks. Lūša distance. Ainīc 30.66 3:15:29 166 06:22 9.41 ir
19/08/17 Pēc numuriem + Susura distance ar Gustu. Ainīc 1.60 11:05 137 06:55 8.66 ir
19/08/17 Skrējiens JanJ 13.37 1:14:10 05:32 10.82
19/08/17 Skrējiens Andis87 13.47 1:24:32 06:16 9.56 ir
19/08/17 Skrējiens Stalte 4.80 41:57 08:44 6.87 ir
19/08/17 Skrējiens Stalte 13.67 1:34:57 06:56 8.64 ir
19/08/17 Skrējiens anikka 33.21 4:34:00 08:15 7.27 ir
19/08/17 Skrējiens ŽagarsĢ 1.58 08:47 05:33 10.79 ir
19/08/17 Skrējiens ŽagarsĢ 21.74 1:58:23 05:26 11.02 ir
19/08/17 Skrējiens guntars.bumans 12.01 1:07:08 05:35 10.73
19/08/17 Skrējiens didzzzons 1.82 11:09 06:07 9.79
19/08/17 Skrējiens didzzzons 21.33 1:48:35 05:05 11.79
19/08/17 Skrējiens Neijs 31.05 3:48:23 07:21 8.16 ir
19/08/17 Skrējiens rambler 4.91 39:00 07:56 7.55 ir
19/08/17 Skrējiens Kļavu Pēteris 0.51 03:44 07:19 8.20 ir
19/08/17 Skrējiens Kļavu Pēteris 21.11 2:00:13 05:41 10.54 ir
19/08/17 RV73 ONils 10.56 57:56 161 05:29 10.94 ir
19/08/17 Skrējiens SandisC 21.21 3:01:48 08:34 7.00 ir
19/08/17 Skrējiens Bubu 1.85 12:13 06:36 9.09 ir
19/08/17 Skrējiens Bubu 30.00 3:34:39 07:09 8.39 ir
19/08/17 Sestdienas intervāli Ginc 17.00 1:44:11 06:07 9.79 ir
19/08/17 Skrējiens StonkaD 10.25 1:07:20 06:34 9.13
19/08/17 Skrējiens experc 9.52 1:07:46 07:07 8.43 ir
19/08/17 Skrējiens svans 4.95 20:21 04:06 14.59 ir
19/08/17 Skrējiens Slowloris 14.04 1:58:12 08:25 7.13
19/08/17 Skrējiens Slowloris 12.44 1:58:11 09:30 6.32
19/08/17 Skrējiens bukss_a 13.50 1:45:18 07:48 7.69
19/08/17 Skrējiens KarīnaK 21.27 2:30:44 07:05 8.47 ir
19/08/17 Skrējiens Piiraadzinjsh 21.38 2:12:25 06:11 9.69
19/08/17 Skrējiens daskilla 21.29 2:00:01 05:38 10.64 ir
19/08/17 Milzkalnes Stirnu Buks VējaMorts 21.48 2:40:14 158 07:27 8.04 ir
19/08/17 Skrējiens InTi68 3.16 14:47 04:40 12.83 ir
19/08/17 Skrējiens Chucky 14.13 1:49:00 07:42 7.78 ir
19/08/17 Skrējiens Anncce 0.60 04:01 06:41 8.96
19/08/17 Skrējiens Anncce 13.38 1:38:28 07:21 8.15
19/08/17 Skrējiens elapins 30.48 3:55:58 07:44 7.75 ir
19/08/17 Skrējiens CaunietisLV 30.67 3:24:39 06:40 8.99
19/08/17 Milzkalnes Stirnu buks Sikais77 21.45 2:28:26 164 06:55 8.67 ir
19/08/17 Skrējiens rmamedov 30.78 4:22:24 08:31 7.04 ir
19/08/17 Siguldas kalniņi puuce 8.19 58:25 07:07 8.41 ir
19/08/17 Stirnu buks Milzkalne LŪSIS Ita 30.88 4:09:08 08:04 7.44 ir
19/08/17 Skrējiens gurchii 21.43 3:04:20 08:36 6.98 ir
19/08/17 Skrējiens kika1993 4.85 29:14 06:01 9.95
19/08/17 Skrējiens raraitis 10.40 1:07:51 06:31 9.20 ir
19/08/17 Skrējiens AivisP 30.59 3:30:06 06:52 8.74 ir
19/08/17 Skrējiens archs 30.18 3:17:34 06:32 9.17
19/08/17 Skrējiens AgrisN 2.52 13:12 05:14 11.45
19/08/17 Skrējiens AgrisN 21.36 2:04:40 05:50 10.28
19/08/17 Skrējiens EvijaTaurene 21.39 2:52:15 08:03 7.45 ir
19/08/17 Skrējiens Normiijs 25.10 2:48:15 06:42 8.95
19/08/17 Skrējiens Andromeda 13.54 1:48:02 07:58 7.52 ir
19/08/17 Stirnubuks / Āžu kalns agnijs 21.38 2:12:31 06:11 9.68 ir
19/08/17 Skrējiens ArnisAn 5.34 34:00 06:22 9.42 ir
19/08/17 Lecam Milzkalnē buraam 20.00 2:29:06 07:27 8.05
19/08/17 Stirnubuks, milzkalns alushox 30.27 2:49:09 174 05:35 10.74 ir
19/08/17 Pēc riteņa sacensībām kājas smagas. Lietutiņa vakara skrējiens. Gīča 15.00 1:17:16 136 05:09 11.65
19/08/17 Milzkalna/Āžu kalna buks mimite 21.20 2:33:08 152 07:13 8.31 ir
19/08/17 Milzkalnes Stirnu buks Zanda19 21.60 3:05:43 149 08:35 6.98 ir
19/08/17 milzkalnu àžu kalna stirnubuks Ilze1409 21.70
19/08/17 Milzkalnes Stirnu buks. putns 21.43 2:20:36 06:33 9.15 ir
19/08/17 Iesildīšanās, atsildīšanās Aivars 5.00 ir
19/08/17 Āžu kalna stirnu buks Aivars 21.32 2:46:00 07:47 7.71 ir
19/08/17 156.Stirnu buks - Milzkalns, Āža kalns - zaķis ilvarito 13.44 1:04:59 04:50 12.41 ir
19/08/17 Āžu kalna Stirnu kaza anciite 21.38 2:50:22 07:58 7.53 ir
19/08/17 Stirnubuks nonnis 21.68 2:30:28 06:56 8.65 ir
19/08/17 Milzkalnes SB stjopachio 21.53 1:48:40 161 05:02 11.89 ir
19/08/17 Stirnu buks zaķis CheekyDevil 13.50 1:36:43 07:09 8.37 ir
19/08/17 Takas ar sieviņu Andris M 9.80 55:30 144 05:39 10.59 ir
19/08/17 Āžu kalna Stirnubuks Raitis58 21.00 2:12:14 06:17 9.53 ir
19/08/17 Stirnu buks Milzkalns Misters 13.62 1:06:59 04:55 12.20 ir
19/08/17 Atsildīšanās Gatis.K 1.25 09:36 133 07:40 7.81 ir
19/08/17 Milzkalnes Stirnu buks Gatis.K 13.45 1:08:14 169 05:04 11.83 ir
19/08/17 Iesildīšanās Gatis.K 1.85 10:38 135 05:44 10.44 ir
19/08/17 stirnu buks azu kalns andis.deze 13.50 1:01:54 04:35 13.09
19/08/17 Skrējiens Lauris 5.32 40:26 124 07:36 7.89 ir
19/08/17 Skrējiens Lauris 8.21 57:09 141 06:57 8.62 ir
19/08/17 19.00.Ar kāpinājumiem pa ceļam MAKRO 10.00 46:52 04:41 12.80 ir
19/08/17 Milzkalna Lūsis Logins 30.00 4:15:00 160 08:30 7.06 ir
19/08/17 Sestdienas vetrasputns 11.01 59:47 153 05:25 11.05 ir
19/08/17 Milzkalna/Āžu kalna stirnu buks DaceDace 13.81 1:31:35 06:37 9.05
19/08/17 Juglas takas Cassandra 25.55 2:41:31 06:19 9.49 ir
19/08/17 107 - Milzkalnes SB lūsis zusurs 30.69 4:07:04 08:03 7.45 ir
19/08/17 Āžu kalna Buks Guna 21.53 2:24:25 06:42 8.94 ir
19/08/17 Āžu kalna Stirnu buks Rupucis_ 30.93 3:38:03 07:02 8.51 ir
19/08/17 Stirnu Buks Milzkalne Krastiņš 13.00 1:18:13 06:01 9.97
19/08/17 #82 Stirnu Buks treniņrežīmā, Milzkalne Jekaterina 21.36 2:45:46 153 07:45 7.73 ir
19/08/17 #82 Bērnu skrējiens ap Šlokenbekas muižu Jekaterina 0.83 07:16 135 08:45 6.85 ir
19/08/17 Šlokenbekas buks Rozamunde 21.25 2:45:22 07:46 7.71 ir
19/08/17 Milzkalnes Stirnbuks lielaa saule 13.70 1:39:15 07:14 8.28 ir
19/08/17 Āžu kalna Stirnubuks - Lūsis Aruurs 30.60 3:26:54 06:45 8.87 ir
19/08/17 kaut kur aiz Speckbar Marta_And 12.80 1:17:00 06:00 9.97 ir
19/08/17 Milzkalna Lūsis ush 30.37 2:48:55 146 05:33 10.79 ir
19/08/17 Skrējiens guntisb 12.00 1:05:36 05:28 10.98 ir
19/08/17 tr/v munkirs 9.10 50:52 150 05:35 10.73 ir
19/08/17 Āžu kalna lūsis ar Romanu Spāre lido 31.20 4:18:18 164 08:16 7.25 ir
19/08/17 Milzkalna Stirnu buks - Vāveres distance. Hiēna 5.00 34:47 06:57 8.62 ir
19/08/17 Skrējiens Dana Rone 10.02 01:04 00:06 563.63
19/08/17 Jxdudu kalvicc94 30.40 2:35:00 05:05 11.77 ir
19/08/17 WRC 2017 Riga Adventure team win-win-win skai-tlot-ajs 87.00 23:01:46 15:52 3.78 ir
19/08/17 Milzkalnes Stirnu buks vitjka 21.80 2:08:46 05:54 10.16 ir
19/08/17 Milzkalnes Stirnu buks Sauļuks 30.55 3:38:23 07:08 8.39 ir
19/08/17 WRC 2017 (Rāzna/Mamonova) Regulus 84.57 17:00:58 12:04 4.97 ir
19/08/17 Bikerniekos. Inzy 10.04 1:17:11 07:41 7.80 ir
19/08/17 10x~160m (slinkā, vieglā diena) cumulus 1.78 05:47 165 03:14 18.47 ir
19/08/17 Stirnubuks Milzkalnē ildziite 22.74 2:55:52 07:44 7.76
19/08/17 . dille 5.00 27:09 05:25 11.05
19/08/17 Stirnu buks. Milzkalne. Duuu-da 13.50 1:15:55 05:37 10.67 ir
19/08/17 Milzkalna/Āžu kalna Stirnu buks (5. posms) 31.00 3:10:12 06:08 9.78 ir
19/08/17 Iesildīšanās 1.00 05:00 05:00 12.00 ir
19/08/17 Solidaritātes skrējiens ar Allu Roberto 5 16.18 1:55:08 07:06 8.43
19/08/17 Stirnu Buks - Milzkalns-Āžu kalns. Buciņš. Bez krampjiem, bet dikti smaga trase. +24 antra 21.55 2:41:59 178 07:30 7.98 ir
19/08/17 Sigulda EK1983 11.01 1:17:56 173 07:04 8.48 ir
19/08/17 (82.0) taciņas, veloeliņš Kampars 14.00 1:06:11 04:43 12.69
19/08/17 Milzkalna/Āžu kalna Stirnu buks (5. posms) MartinsF 13.88 1:47:52 07:46 7.72 ir
19/08/17 vakara j pikols 4.05 30:05 07:25 8.08
19/08/17 Sestdiena +19 DR 6/14 apmācies Aldis B 6.32 38:22 165 06:04 9.89 ir
19/08/17 Milzkalna Āžu kalna Stirnu Buks Zaķis Roziiite 13.45 1:36:59 07:12 8.32 ir
19/08/17 šlokenbekas stirnu buks,zaķis, normundiņš 13.41 1:53:02 163 08:25 7.12 ir
19/08/17 Sestdienas SFS - iesildīšanās un atsildīšanās noris 8.03 42:12 05:15 11.42 ir
19/08/17 Milzkalna/Āžu kalna Stirnu buks-Lūsis Rozens 30.54 3:26:49 161 06:46 8.86
19/08/17 Milzkalna - Āža kalna Zaķis Aļona 13.65 1:41:47 160 07:27 8.05 ir
19/08/17 Milzkalna - Āža kalna Zaķis Raibacainais Ezītis 13.22 1:27:05 06:35 9.11 ir
19/08/17 Karstumā un vējā Ginchaa 18.08 2:09:00 134 07:08 8.41
19/08/17 Lūsis āžu kalnā Naurītis 30.32 2:44:01 05:24 11.09 ir
19/08/17 Milzkalna/Āžu kalna Stirnu buks Antruks 21.70 3:07:49 08:39 6.93
19/08/17 riekstojot didzisc 11.40 1:24:53 163 07:26 8.06 ir
19/08/17 Karsts Zaķis Tukumā, 12:00 personaskods 13.64 1:27:55 177 06:26 9.31 ir
19/08/17 Stirnu buks Milzkalnē Krustnagliņa 21.68 3:00:52 169 08:20 7.19 ir
19/08/17 #esesmustirnubuks BGIRTS 21.49 2:36:02 149 07:15 8.26 ir
19/08/17 Āžu kalna buks Ewiaa 21.00 2:12:14 173 06:17 9.53 ir
19/08/17 r Millers 4.63 22:18 04:48 12.46 ir
19/08/17 Zante IntaN 7.60 50:00 06:34 9.12 ir
19/08/17 Atsildīšanās Milzkalnē OreMan 2.00 12:19 06:09 9.74 ir
19/08/17 Milzkalna-Āžu kalna Stirnubuks OreMan 13.72 1:04:08 04:40 12.84 ir
19/08/17 Iesildīšanās Milzkalnē OreMan 2.20 11:04 05:01 11.93 ir
19/08/17 12:36, Shausmiigs cepiens, biju prieciiga, ka shodien neatrados Stirnu bukaa Dziņa 13.60 1:30:38 151 06:39 9.00 ir
19/08/17 Milzkalnes stinubuma Zaķsoļojums Lasma3 13.65 2:05:26 09:11 6.53 ir
19/08/17 Stirnu buks Zaķis / endo rādītāji EvijaK 14.21 1:55:14 08:06 7.40
19/08/17 rīta pusē neirula 4.44 38:03 140 08:34 7.00 ir
19/08/17 Pa meža ceļu Pičuks Dz 2.70 17:46 06:34 9.12
19/08/17 Āžu kalna Stirnu buks mtiger 13.59 1:01:19 04:30 13.30 ir
19/08/17 Treniņš Stokholmā (īsais) sanitina 3.55 22:05 172 06:13 9.65 ir
19/08/17 Gaiziņkalna apļi Mada 2.66 22:53 08:36 6.97 ir
19/08/17 Adaptācija neomax 17.00 1:51:16 141 06:32 9.17 ir
19/08/17 pec stieniem a-kodejs 2.01 10:48 05:22 11.17 ir
19/08/17 sarkandavgava+mezparks a-kodejs 11.19 59:00 05:16 11.38 ir
19/08/17 12.00.Lēnais MAKRO 13.00 1:05:10 05:00 11.97 ir
19/08/17 Skrējiens Shuma 17.50 1:43:56 143 05:56 10.10 ir
19/08/17 Skrējiens- Lloret de Mar Chuncha 11.00 1:03:49 05:48 10.34 ir
19/08/17 pa S andris13 11.02 51:11 04:38 12.92 ir
19/08/17 Karsts stadions IlzeP 4.00 28:34 07:08 8.40 ir
19/08/17 st. kveks 14.00
19/08/17 (82.0) taciņas Kampars 7.00 38:00 05:25 11.05
19/08/17 Brīvskrējiens pludmalē seismologs 11.54 1:05:02 141 05:38 10.65 ir
19/08/17 NRR 56 lerychv 8.09 45:19 115 05:36 10.71 ir
19/08/17 #173. JurBer 13.37 1:48:30 130 08:06 7.39 ir
19/08/17 pirmsnegaisā purene_vulgaris (parasta) 8.21 54:22 135 06:37 9.06 ir
19/08/17 Vecmilgrāvis aicis 6.00 32:34 05:25 11.05 ir
19/08/17 Skrējiens laputis 6.23 36:08 05:47 10.35 ir
19/08/17 Skrējiens zandarts 19.26 2:05:12 142 06:30 9.23 ir
19/08/17 Skrējiens Sinta1 6.01 32:02 05:19 11.26 ir
19/08/17 Skrējiens Jānis_O 2.42 11:53 04:54 12.22 ir
19/08/17 Skrējiens gincha 1.96 12:29 06:22 9.42 ir
19/08/17 Skrējiens Alvals 10.30 57:57 05:37 10.66
19/08/17 Skrējiens Uldis Nipers 6.12 32:38 05:19 11.25
19/08/17 1,5 vladis99 6.24 34:30 152 05:31 10.85 ir
19/08/17 Running Aivysuperman 5.00 29:00 05:48 10.34 ir
19/08/17 rīta rosme marcinsh 5.67 34:32 06:05 9.85 ir
18/08/17 Pasaules rogaininga čempionāts 24 h, 1. aplis Alarion 33.60 9:36:09 17:08 3.50 ir
18/08/17 Grīziņkalna mainīgais reljefs sm72 7.14 40:40 05:41 10.53 ir
18/08/17 paskrienam vakarā mimite 7.20 39:20 157 05:27 10.98 ir
18/08/17 Orientēšanās priedza 51.98 17:30:09 20:12 2.97
18/08/17 Orientēšanās martinsoz 90.90 23:47:43 15:42 3.82 ir
18/08/17 Orientēšanās zetto 60.57 11:50:02 11:43 5.12 ir
18/08/17 Skrējiens uzzy 2.00 10:58 05:29 10.94 ir
18/08/17 Orientēšanās MartinsOzolins 87.70 23:06:00 15:48 3.80 ir
18/08/17 Orientēšanās Gandzaitis 78.39 23:44:46 18:10 3.30
18/08/17 Skrējiens EmilsE 90.74 22:06:02 14:36 4.11 ir
18/08/17 WRC Rāznā Argons 105.80 23:53:14 13:32 4.43 ir
18/08/17 WRC 2017 Viktoriinii 105.00 23:37:34 13:30 4.44 ir
18/08/17 Skrējiens Kru 1.83 10:01 05:28 10.96 ir
18/08/17 Skrējiens Kru 4.07 20:19 04:59 12.02 ir
18/08/17 Treniņš izbadējies 3.02 15:06 142 05:00 12.00 ir
18/08/17 paskrien 0:20 h GintsB 3.79 20:03 127 05:17 11.34 ir
18/08/17 Pasaules čempionāts rogainingā 24 h Rāzna chunka 91.40 23:35:35 15:29 3.87 ir
18/08/17 Treniņš Richa_K 10.03 52:06 143 05:11 11.55 ir
18/08/17 pirmsmaču ciks 6.33 39:00 06:09 9.74 ir
18/08/17 ... in 4.23 30:24 07:11 8.35
18/08/17 Riita rosme azhons 1.90 10:00 05:15 11.40 ir
18/08/17 Vakara skrējiens Edmunds 11.19 56:55 05:05 11.80 ir
18/08/17 Skrējiens ps. Laaurappeeterzone 5.45 30:28 05:35 10.73 ir
18/08/17 Rēzekne shumite 9.10 55:28 147 06:05 9.84
18/08/17 Bc8 - run #5 Lielkuilis 5.00 31:04 06:12 9.66 ir
18/08/17 mežaparks viesis 13.01 1:12:26 05:34 10.78 ir
18/08/17 Platania seaside pkm run lvingr 14.00 1:35:00 135 06:47 8.84 ir
18/08/17 Airport road with the kids runnerchick 10.00 50:44 134 05:04 11.83 ir
18/08/17 World Rogaining Championships (+4500) Džokers 112.80 23:43:36 12:37 4.75 ir
18/08/17 WRC 2017, Rāzna1, +29C... +15C sola.scriptura 33.60 9:34:51 134 17:06 3.51 ir
18/08/17 Krosiņš tomick 6.75 34:35 148 05:07 11.71 ir
18/08/17 karsts vakars eees 5.03 33:33 06:40 9.00 ir
18/08/17 Enola. Juglas meži. Kaut kas rapo pa roku 11.57 1:01:46 05:20 11.24 ir
18/08/17 Skrējiens RiKa 2.65 18:44 07:04 8.49
18/08/17 100*7 Renee 3.40 22:50 147 06:42 8.93 ir
18/08/17 Reebok Running Crew Ugis 10.18 1:00:05 146 05:54 10.17 ir
18/08/17 Skrējiens Casperr 92.40 23:34:07 15:18 3.92 ir
18/08/17 Skrējiens anikka 4.13 24:32 05:56 10.10 ir
18/08/17 Orientēšanās raitisbe 77.45 21:09:23 16:23 3.66 ir
18/08/17 PČ rogainings 2017 Nix65 89.51 22:55:47 15:22 3.90 ir
18/08/17 Orientēšanās Martins.Krumins 84.03 18:02:01 12:52 4.66 ir
18/08/17 Orientēšanās kasiic 25.38 1:16:12 03:00 19.98 ir
18/08/17 Orientēšanās bro 90.90 23:47:43 15:42 3.82 ir
18/08/17 Pasaules čempionāts rogainingā 24h Rāzna jans.s 77.45 21:09:23 16:23 3.66 ir
18/08/17 Skrējiens. putns 6.73 41:38 06:11 9.70 ir
18/08/17 Kamparkalna vadātāji zaudējuši formu...  Andris M 7.30 49:00 153 06:42 8.94 ir
18/08/17 WRC 2017 ildze 116.00 23:58:03 12:23 4.84 ir
18/08/17 Skrējiens BGIRTS 8.00 37:43 167 04:42 12.73 ir
18/08/17 Fun DzeniferaZ 2.00 18:00 09:00 6.67 ir
18/08/17 1648. Pēc velo (Teika-Ganību dambis) Artūro 5.46 30:00 05:29 10.92 ir
18/08/17 Recovery 10 neomax 10.01 1:01:40 125 06:09 9.74 ir
18/08/17 Bc4 Lielkuilis 6.00 31:57 05:19 11.27 ir
18/08/17 Bc2 Lielkuilis 7.50 37:04 04:56 12.14 ir
18/08/17 Bc0 Lielkuilis 2.50 15:28 06:11 9.70 ir
18/08/17 Bc6 Lielkuilis 8.55 42:55 05:01 11.95 ir
18/08/17 Bc2 Lielkuilis 8.11 40:05 04:56 12.14 ir
18/08/17 Bc6 Lielkuilis 10.00 49:18 04:55 12.17 ir
18/08/17 Bc4 Lielkuilis 9.93 59:07 05:57 10.08 ir
18/08/17 Bc2 Lielkuilis 10.00 49:54 04:59 12.02 ir
18/08/17 Bc0 Lielkuilis 9.84 57:56 05:53 10.19 ir
18/08/17 Skrējiens EvijaK 7.49 52:52 07:03 8.50
18/08/17 Gorbunovkas aplis neirula 8.87 57:31 164 06:29 9.25 ir
18/08/17 8.00 km zvaigzne 8.00 50:22 06:17 9.53 ir
18/08/17 Piektdienis Rainy777 4.00 31:00 07:45 7.74 ir
18/08/17 Skrējiens xorix 4.00 20:03 05:00 11.97 ir
18/08/17 Skrējiens Kristaps Ķilkuts 5.10 24:03 04:42 12.72 ir
18/08/17 Skrējiens Marchello89 9.01 43:59 04:52 12.29
18/08/17 Skrējiens VējaMorts 5.01 27:33 05:29 10.91 ir
18/08/17 Skrējiens mozgovoj ribak 6.82 24:40 03:37 16.59 ir
18/08/17 Skrējiens Elhana 4.90 38:03 07:45 7.73 ir
18/08/17 Skrējiens migors 14.15 1:25:28 06:02 9.93
18/08/17 Skrējiens StonkaD 13.35 1:31:21 06:50 8.77
18/08/17 Skrējiens maaris_m 9.69 54:00 05:34 10.77 ir
18/08/17 Skrējiens annele 2.15 14:43 06:50 8.77 ir
18/08/17 Skrējiens kalvicc94 10.30 50:01 04:51 12.36 ir
18/08/17 Skrējiens anup 7.01 37:01 05:16 11.36 ir
18/08/17 Skrējiens I_V 8.13 42:39 05:14 11.44 ir
18/08/17 Skrējiens Ita 7.03 45:27 06:27 9.28 ir
18/08/17 Skrējiens sjordzis 4.08 23:16 05:42 10.52 ir
18/08/17 Skrējiens didzzzons 11.01 51:07 04:38 12.92
18/08/17 Pa asfaltētu ielu Pičuks Dz 3.00 21:08 07:02 8.52
18/08/17 Skrējiens johaidi 11.03 1:05:45 05:57 10.07 ir
18/08/17 Skrējiens Andis87 5.01 26:30 05:17 11.34 ir
18/08/17 Skrējiens Rudix 5.00 28:02 05:36 10.70 ir
18/08/17 Skrējiens des 4.31 25:54 06:00 9.98 ir
18/08/17 Skrējiens rzentelis 13.16 1:26:03 06:32 9.18
18/08/17 Skrējiens Maiznieks 8.59 53:04 06:10 9.71
18/08/17 Skrējiens Tārps 10.05 56:50 05:39 10.61 ir
18/08/17 Skrējiens Zipcis 10.01 50:02 04:59 12.00 ir
18/08/17 Skrējiens Janile 10.07 54:55 05:27 11.00
18/08/17 Skrējiens otto 12.16 1:02:32 05:08 11.67
18/08/17 Skrējiens AgrisN 10.08 55:12 05:28 10.96
18/08/17 Skrējiens Jānis_O 2.44 11:49 04:50 12.39 ir
18/08/17 Vēls skrējiens riebīgais 3.30 18:36 05:38 10.65 ir
18/08/17 saulriets uz Mola, un pēc tam 17km gar jūru aiaiaigar 33.18 2:56:57 05:19 11.25 ir
18/08/17 2017_08_18_b - Niedrājam apkārt (2.3 km) C-moll`a 2.30 14:24 06:15 9.58 ir
18/08/17 Piektdienas mierīgais noris 9.19 47:49 05:12 11.53 ir
18/08/17 117 Guntis.Balodis 15.02 1:36:17 06:24 9.36
18/08/17 Gar krastu spruuds 8.00 42:00 05:15 11.43
18/08/17 Running Aivysuperman 3.00 16:11 05:23 11.12 ir
18/08/17 Veloceliņš; 10x200m+2:00 topinjs 13.38 1:13:07 05:27 10.98 ir
18/08/17 NBT r 4 K-ens 6.08 43:55 07:13 8.31 ir
18/08/17 vakars Ingmar 7.19 41:17 05:44 10.45 ir
18/08/17 #172. JurBer 11.72 1:30:04 133 07:41 7.81 ir
18/08/17 Skrējiens pēc darba RobertsR 10.42 45:48 04:23 13.65 ir
18/08/17 Pēdējais pirms Stirnu Buka Šlokenbekas muižā ar 6x150m sprintiem James87 7.85 33:26 04:15 14.09 ir
18/08/17 run JānisV 6.66 31:59 136 04:48 12.49 ir
18/08/17 Mežaparka 8 parastie kilometri gasha 8.00 41:00 128 05:07 11.71 ir
18/08/17 Pa rajonu m.jordan 5.28 25:26 04:49 12.46 ir
18/08/17 Medības 89: XXVI Jay-P 3.06 19:00 122 06:12 9.66 ir
18/08/17 balozi bredato 10.31 1:02:31 135 06:03 9.89 ir
18/08/17 Iesild./atsild. DK86 4.00 21:22 156 05:20 11.23
18/08/17 ar Liepājas meitenēm Rainers 11.50 1:11:06 06:10 9.70 ir
18/08/17 Tempa skrējiens DK86 4.00 17:02 161 04:15 14.09
18/08/17 kross+VFS bunfunk 10.10 44:49 129 04:26 13.52
18/08/17 No C GU 7.52 40:15 05:21 11.21 ir
18/08/17 Uz autobusu DK86 2.00 10:02 150 05:01 11.96
18/08/17 uz c GU 0.79 04:14 05:21 11.20 ir
18/08/17 Lēnām. Uldzha 5.80 42:49 07:22 8.13 ir
18/08/17 :) Sveta32 5.21 30:49 05:54 10.14
18/08/17 Skrējiens Zix 3.45 22:21 06:28 9.26 ir
18/08/17 NRR 55 lerychv 7.96 39:38 131 04:58 12.05 ir
18/08/17 5diena ar Kristapu Gatis.K 9.20 47:02 137 05:06 11.74 ir
18/08/17 Skrējiens 10.00 49:05 04:54 12.22 ir
18/08/17 1km test kļučiks 1.00 03:50 03:50 15.65 ir
18/08/17 pa stadionu ātrāk - lēnāk kļučiks 5.00 29:50 05:58 10.06 ir
18/08/17 Zk piektd maruks 10.00 56:58 133 05:41 10.53
18/08/17 Ventsp.asf.*lh. zirnis 10.21 1:06:25 06:30 9.22 ir
18/08/17 Skrējiens   vetrasputns 10.00 1:02:31 06:15 9.60 ir
18/08/17 Skrējiens borga 10.62 59:30 152 05:36 10.71 ir
18/08/17 vēl jūtami intervāli Flrx 7.60 38:49 05:06 11.75 ir
18/08/17 (82.5) pludmale Kampars 13.60 1:06:44 04:54 12.23
18/08/17 st. kveks 11.00
18/08/17 Vakarā j pikols 4.02 30:01 07:28 8.04
18/08/17 Lēns riksis piektdienā uzreiz pēc darba Jānis_v 6.20 33:32 123 05:24 11.09 ir
18/08/17 16.18M cumulus 26.03 2:04:51 152 04:47 12.51 ir
18/08/17 Basām Jūrmalā einmed 3.01 19:24 136 06:26 9.31 ir
18/08/17 Basām Jūrmalā ar sievu + tempo einmed 23.01 2:36:19 122 06:47 8.83 ir
18/08/17 Pļavnieku mežā. 17:00 ErvinsK 3.74 25:44 06:52 8.72 ir
18/08/17 Mērsraga meži JA 9.10 57:53 06:21 9.43
18/08/17 Mežā Mada 13.21 1:28:58 06:44 8.91 ir
18/08/17 riits lietus zizis 5.23 41:00 07:50 7.65
18/08/17 Garie intervāli: 3 km iesild + 3 km tempo + 1 km slow + 2 km tempo + 2km slow KarlisBumans 11.00 1:01:05 151 05:33 10.80 ir
18/08/17 Cooldown in barefoot ansiso 1.00 ir
18/08/17 Empty LSPA stadium. 3x1950m 6:47+6:50+6:45/rec 2min ansiso 7.00 ir
18/08/17 #81 Mežs Jekaterina 7.01 50:47 133 07:14 8.28 ir
18/08/17 70.F1 aivars33 6.00 30:00 05:00 12.00 ir
18/08/17 atvaļinājums Lote 6.09 38:54 06:23 9.39 ir
18/08/17 Piektdiena Ginchaa 12.83 1:17:25 06:02 9.94
18/08/17 Pirms konča Cassandra 11.50 1:10:59 06:10 9.72 ir
18/08/17 Skrienam Mērsragā! gskunstins 8.82 45:52 05:12 11.54 ir
18/08/17 Mazulīša mieriņam pa Kauguru mežiņu. Hiēna 2.64 19:28 07:22 8.14 ir
18/08/17 Skrējiens Dubultaģente 11.04 1:11:12 157 06:26 9.30 ir
18/08/17 Kāpa AndrisJ 5.49 34:04 06:12 9.67 ir
18/08/17 10:06 Dziņa 8.50 55:17 147 06:30 9.23 ir
18/08/17 Dienu pirms Ina 5.50 43:38 150 07:56 7.56 ir
18/08/17 Saglabāšana treneris 16.00 1:20:00 05:00 12.00
18/08/17 Skrējiens- Lloret de Mar Chuncha 12.00 1:12:59 06:04 9.87 ir
18/08/17 rīta skrējiens pele2014 8.00 140
18/08/17 Treniņš Aigarsol 18.00 1:36:00 05:20 11.25
18/08/17 12:30 Skanstes iela-Ganību dambis(+20) GačusSkrunda 7.10 36:59 05:12 11.52 ir
18/08/17 Treniņš Rīgā sanitina 6.05 44:42 172 07:23 8.12 ir
18/08/17 ķeksītis Ugisdatavs 8.90 48:50 126 05:29 10.94 ir
18/08/17 Rīta rosme Smiltenē VilnisV 3.40 19:45 129 05:48 10.33 ir
18/08/17 Rīta skrējiens Lielvārdē Dainis 2.48 16:00 06:27 9.30 ir
18/08/17 ērts skrējiens ush 13.67 1:04:41 127 04:43 12.68 ir
18/08/17 Skrējiens Roziiite 5.51 33:47 06:07 9.79 ir
18/08/17 rīta rosme Raitis58 5.40 30:28 05:38 10.63 ir
18/08/17 Skrējiens runner-arrnis 6.00 27:10 145 04:31 13.25 ir
18/08/17 No rīta gar jūru Andris__Z 8.06 1:01:30 07:37 7.86 ir
18/08/17 Vāveres ielūdz #47 SelfijuPavēlniece 11.00 1:05:50 05:59 10.03 ir
18/08/17 Rīta skrējiens Krī 6.93 39:42 05:43 10.47 ir
18/08/17 Skrējiens sominens 0.74 03:59 05:22 11.15 ir
18/08/17 Rīta rosme Liepāja un noplunčāšanās aukstā ūdenī,brrr....:-) Gīča 19.00 1:42:50 145 05:24 11.09
18/08/17 Skrējiens Sandijs 3.15 20:01 06:21 9.44 ir
18/08/17 Skrējiens daskilla 0.76 08:09 10:43 5.60 ir
18/08/17 Skrējiens daskilla 10.56 1:05:21 06:11 9.70 ir
18/08/17 intervāli 5 x 6min+2min Beris 9.85 1:05:09 148 06:36 9.07 ir
18/08/17 Skrējiens AijaB 5.42 31:20 05:46 10.38 ir
18/08/17 Running Aivysuperman 10.25 1:00:34 115 05:54 10.15 ir
18/08/17 Skrējiens Uldis Nipers 5.01 24:50 04:57 12.10
18/08/17 Skrējiens KarīnaK 12.22 1:15:34 06:11 9.70 ir
18/08/17 gurķošanās:) purene_vulgaris (parasta) 10.30 1:07:11 137 06:31 9.20 ir
18/08/17 rīta skrējiens līdz Svētes upei Diddi 10.17 1:04:05 06:18 9.52 ir
18/08/17 Skrējiens. vitjka 10.50 49:18 04:41 12.78 ir
18/08/17 Pludmale sergejs1 7.06 49:04 06:56 8.63 ir
18/08/17 Rīts, īsais jdex 5.08 32:12 06:20 9.47 ir
18/08/17 Rīts Ainars 8.00 40:00 05:00 12.00 ir
18/08/17 rīta pikols 7.98 52:41 126 06:36 9.09 ir
18/08/17 Skrējiens. garaissss 10.45 58:54 131 05:38 10.65 ir
18/08/17 Skrējiens Wictoria 10.00 53:05 05:18 11.30 ir
18/08/17 sešpadsmitais ZaNelke 9.02 1:00:02 164 06:39 9.01 ir
17/08/17 Deglava tilta cilpas sm72 9.76 54:22 05:34 10.77 ir
17/08/17 Rīta agrais! Ewis 7.01 53:12 157 07:35 7.91 ir
17/08/17 Skrējiens uzzy 1.23 06:38 05:23 11.13 ir
17/08/17 orientešanās Argons 8.07 1:41:37 12:35 4.76 ir
17/08/17 WRC2017 Ultralapsa 105.00 23:34:26 13:28 4.45 ir
17/08/17 Skrējiens Kru 9.47 50:01 05:16 11.36 ir
17/08/17 skrējiens Kalnu Dace 9.00 50:25 150 05:36 10.71 ir
17/08/17 Riita rosme azhons 1.90 09:45 05:07 11.69 ir
17/08/17 17.08. thunder man 6.22 34:56 119 05:36 10.68 ir
17/08/17 Atpakaļ Rīgā LindaL 11.01 1:01:09 05:33 10.80 ir
17/08/17 rimi-otto Ģirtiņš 5.50 30:40 168 05:34 10.76 ir
17/08/17 World rogaining championship 2017 Inga_K 105.00 23:34:26 101 13:28 4.45 ir
17/08/17 Mierīgs skrējiens Raitis 15.30 1:19:52 05:13 11.49 ir
17/08/17 mežaparks viesis 9.40 48:04 05:06 11.73 ir
17/08/17 Airport road village runnerchick 15.00 1:22:22 125 05:29 10.93 ir
17/08/17 Dārzciems eees 5.08 32:33 06:24 9.36 ir
17/08/17 Darbs. Jānis uzdzen ātrumu. Kaut kas rapo pa roku 3.76 16:44 04:27 13.48 ir
17/08/17 Skrējiens dzelksnite 8.45 53:00 06:16 9.57 ir
17/08/17 Skrējiens Sikais77 8.09 44:26 05:29 10.92 ir
17/08/17 Skrējiens kasiic 1.13 32:00 28:19 2.12 ir
17/08/17 40/20 15x stjopachio 9.82 45:03 134 04:35 13.08 ir
17/08/17 Fun DzeniferaZ 2.00 18:00 09:00 6.67 ir
17/08/17 1647. Fiksais Ķīšezers (pelde) Artūro 6.66 40:42 130 06:06 9.82 ir
17/08/17 Skrējiens RaivisR 15.13 1:08:24 04:31 13.27 ir
17/08/17 Skrējiens jaudzin 5.08 30:13 05:56 10.09
17/08/17 vēlais alx 10.00 42:45 148 04:16 14.04 ir
17/08/17 17.08 jurdoms 6.16 43:43 139 07:05 8.45
17/08/17 Veloceliņš; 10x1k+3:00 topinjs 25.33 2:05:49 04:58 12.08 ir
17/08/17 No darba topinjs 5.58 28:42 05:08 11.67 ir
17/08/17 8km Z2 Māris91 8.02 47:35 135 05:55 10.11 ir
17/08/17 Skrējiens Lauris 6.38 42:33 142 06:40 9.00 ir
17/08/17 st. kveks 6.00
17/08/17 Lēnām. Uldzha 6.10 44:57 07:22 8.14 ir
17/08/17 Nedaudz ātrāk alex1255 6.32 36:50 152 05:49 10.30 ir
17/08/17 Treniņš Richa_K 9.93 57:12 127 05:45 10.42 ir
17/08/17 Rīts AndrisJ 6.20 33:36 05:25 11.07 ir
17/08/17 kā gribējās tā skrēju Ugisdatavs 18.50 1:32:10 135 04:58 12.04 ir
17/08/17 Vakara skrējiens ar Valdu Dainis 3.67 30:00 08:10 7.34 ir
17/08/17 Grīziņkalns. #3  Didzo 15.34 1:30:30 05:53 10.17 ir
17/08/17 Rīta skrējiens Lielvārdē Dainis 2.48 16:00 06:27 9.30 ir
17/08/17 Vakara sēņošana M257 9.96 1:09:55 07:01 8.55 ir
17/08/17 4-diena kerija 8.93 47:37 05:19 11.25 ir
17/08/17 Skrējiens-Francija Chuncha 5.00 29:00 05:48 10.34 ir
17/08/17 Gatavošanās SKM Trakais 20.00 1:50:01 05:30 10.91 ir
17/08/17 Skrējiens AivisP 7.17 37:55 05:17 11.35 ir
17/08/17 Skrējiens skristaps 10.72 1:08:25 06:22 9.40 ir
17/08/17 Skrējiens ViniNoskrejaVienuVasaru 5.60 34:30 06:09 9.74 ir
17/08/17 13:23 Dziņa 6.00 39:31 144 06:35 9.11 ir
17/08/17 Medium run ar 30 min 3. pulsa zonā Beris 6.33 46:05 136 07:16 8.24 ir
17/08/17 Treniņš Misters 4.43 25:52 05:50 10.28 ir
17/08/17 tipu tapu GintsK 15.46 1:36:48 06:15 9.58 ir
17/08/17 Skrējiens Kļavu Pēteris 14.26 1:06:58 04:41 12.78 ir
17/08/17 Skrējiens edžus11 8.01 47:19 05:54 10.16 ir
17/08/17 Skrējiens anikka 8.20 49:52 06:04 9.87 ir
17/08/17 Tas arī viss šonedēļ. Elīna K 4.29 32:23 149 07:32 7.95 ir
17/08/17 paskrienam vakarā mimite 8.20 46:36 148 05:40 10.56 ir
17/08/17 {22:38} Tomēr izvilkos! KM, pavisam mierīgi (cik nu tas iespējams) Andulis 8.88 1:00:45 06:50 8.77
17/08/17 Skrējiens Anncce 6.57 40:35 06:10 9.71
17/08/17 Skrējiens Kristaps Ķilkuts 8.09 38:16 04:43 12.68 ir
17/08/17 Skrējiens mriden 12.44 1:04:12 05:09 11.63
17/08/17 Skrējiens migors 8.00 41:35 05:11 11.54
17/08/17 Skrējiens Andromeda 4.77 32:41 06:51 8.76 ir
17/08/17 Skrējiens EvijaTaurene 5.77 38:45 06:42 8.93 ir
17/08/17 Skrējiens NITRO 10.21 56:56 05:34 10.76 ir
17/08/17 Skrējiens Mārtiņš Pakulis 9.42 58:22 06:11 9.68 ir
17/08/17 Skrējiens Stupinss 4.66 24:53 05:20 11.24 ir
17/08/17 Skrējiens Stupinss 1.51 09:19 06:10 9.72 ir
17/08/17 Skrējiens a2kat 7.14 1:25:18 11:56 5.02
17/08/17 Medības 89: XXV Jay-P 5.18 32:00 120 06:10 9.71 ir
17/08/17 2017_08_17_c - Szybka dogrywka with Līga (1.6 km) C-moll`a 1.57 09:06 05:47 10.35 ir
17/08/17 2017_08_17_b - Trakie pieci naktī (2.9 km) C-moll`a 2.90 20:11 06:57 8.62 ir
17/08/17 Skrējiens xorix 7.02 36:32 05:12 11.53 ir
17/08/17 Skrējiens KK_LV 4.03 26:00 06:27 9.30 ir
17/08/17 Skrējiens pork13 7.10 46:39 06:34 9.13 ir
17/08/17 M-7-3 Arweed 9.63 49:07 148 05:06 11.76 ir
17/08/17 Skrējiens PriekaPuļķis 7.01 36:51 05:15 11.41 ir
17/08/17 Skrējiens Chucky 4.48 30:27 06:47 8.83 ir
17/08/17 Skrējiens edžus11 6.51 33:02 05:04 11.82 ir
17/08/17 Skrējiens Slowloris 5.74 47:42 08:18 7.22
17/08/17 Skrējiens Jānis_O 13.82 1:09:05 04:59 12.00 ir
17/08/17 Skrējiens RiKa 12.21 1:06:07 05:24 11.08
17/08/17 Skrējiens RiKa 13.09 1:31:56 07:01 8.54
17/08/17 Skrējiens ezisskrien 7.30 37:54 05:11 11.56 ir
17/08/17 Tempa treniņš forshais1 9.00 45:34 05:03 11.85 ir
17/08/17 adidas runners | RIGA forshais1 10.31 52:56 05:08 11.69 ir
17/08/17 Skrējiens guntars.bumans 18.01 1:52:08 06:13 9.64
17/08/17 Skrējiens des 2.02 13:09 06:30 9.22 ir
17/08/17 Skrējiens Bubu 9.02 42:33 04:43 12.72 ir
17/08/17 Skrējiens vl80 10.33 1:00:05 138 05:48 10.32 ir
17/08/17 Skrējiens gudeens 13.22 1:04:35 04:53 12.28
17/08/17 Skrējiens JanJ 10.51 54:38 05:11 11.54
17/08/17 Skrējiens Logins 7.63 58:12 139 07:37 7.87 ir
17/08/17 Skrējiens gustavs720 13.01 1:29:13 06:51 8.75
17/08/17 Skrējiens archs 15.50 1:28:46 05:43 10.48
17/08/17 Skrējiens Kaspars33 12.55 1:00:01 04:46 12.55 ir
17/08/17 Skrējiens VējaMorts 8.04 46:05 05:43 10.47 ir
17/08/17 Skrējiens burunduks 10.02 58:32 05:50 10.27 ir
17/08/17 Skrējiens eurosaj 6.14 37:50 06:09 9.74 ir
17/08/17 Skrējiens Martinits1 21.30 1:49:28 05:08 11.67 ir
17/08/17 Līdz 150 Renee 5.01 35:42 142 07:07 8.42 ir
17/08/17 Skrējiens Sandijs 5.34 37:00 06:55 8.66 ir
17/08/17 Skrējiens AlteR-EgO 8.03 39:13 04:53 12.29
17/08/17 Skrējiens mtiger 7.50 1:11:44 09:33 6.27 ir
17/08/17 Skrējiens MrDimants 5.06 31:30 06:13 9.64
17/08/17 Skrējiens edg 8.27 51:34 06:14 9.62 ir
17/08/17 Running Aivysuperman 5.00 25:14 05:02 11.89 ir
17/08/17 Pēc 36km riteņbraukšanas pa Beberliņiem izdomāju vēl gar jūru paskriet,skaists vakars Liepājā. Gīča 8.00 39:49 127 04:58 12.06
17/08/17 Skrējiens līdz Gintam pēc riteņa. Gīča 1.00 05:20 120 05:20 11.25
17/08/17 W13D88 / arSievu#035 oldys34 13.40 1:20:04 149 05:58 10.04 ir
17/08/17 Adidas Runners Zanda19 5.42 35:42 147 06:35 9.11 ir
17/08/17 Vēls skrējiens riebīgais 3.30 18:50 05:42 10.51 ir
17/08/17 Skrējiens buraam 10.42 1:00:02 05:45 10.41 ir
17/08/17 Lenta Magnuss 4.50 30:01 06:40 9.00
17/08/17 Ceturtdienas skrējiens Ginc 20.00 2:10:22 06:31 9.20 ir
17/08/17 AR ilZZuks 5.43 35:50 06:35 9.09
17/08/17 Rīta taciņas Cassandra 5.50 33:28 06:05 9.86 ir
17/08/17 Mazais spruuds 4.00 20:29 05:07 11.72
17/08/17 29 DaceDace 11.00 1:04:22 05:51 10.25
17/08/17 Viļņā, Lietuvas kara akadēmijas pagalmos un ap futbola laukumu tikai pa asfaltu basām kājām Lielkuilis 5.00 32:54 06:34 9.12 ir
17/08/17 154. ilvarito 10.10 43:38 04:19 13.89 ir
17/08/17 NBT r 3 K-ens 5.59 41:24 07:24 8.10 ir
17/08/17 Ar katru soli tuvāk seriālam vetrasputns 10.00 1:01:52 142 06:11 9.70 ir
17/08/17 Baldone aicis 5.00 27:41 05:32 10.84 ir
17/08/17 Skrējiens Duuu-da 8.00 51:03 06:22 9.40 ir
17/08/17 Adidas runners Lasma3 14.44 1:41:00 150 06:59 8.58 ir
17/08/17 106 - 12.BBPU koptreniņš zusurs 8.02 42:32 05:18 11.31 ir
17/08/17 treniņš Aigarsol 12.10 55:00 04:32 13.20
17/08/17 NRC Ewiaa 5.81 33:01 162 05:40 10.56 ir
17/08/17 treniņš LEICHA 16.50 1:38:45 05:59 10.03
17/08/17 BBPU 12. koptreniņš OreMan 8.00 37:51 04:43 12.68 ir
17/08/17 Ceturtdienas savādākais maršruts Ginchaa 15.25 1:31:11 05:58 10.03
17/08/17 Apkārt parkam Ivars L 5.12 29:20 158 05:43 10.47
17/08/17 Matisons Runners Club Ventspilsk zirnis 18.20 1:42:42 05:38 10.63 ir
17/08/17 22* Ziepčiks Rozens 12.00 1:06:59 129 05:34 10.75
17/08/17 Adidas Runners Riga koptreniņš(7x skrējiens Dzeguškalnā) GačusSkrunda 9.40 54:51 05:50 10.28 ir
17/08/17 Jaaaa ivitis 10.10 1:01:38 06:06 9.83
17/08/17 Tempa treniņš runner-arrnis 17.00 1:07:53 164 03:59 15.03 ir
17/08/17 Skrejiens VP13 10.33 51:53 05:01 11.95 ir
17/08/17 Skrējiens 14.00 1:07:32 04:49 12.44 ir
17/08/17 Skrējiens DS93 6.50 30:00 04:36 13.00
17/08/17 Modulis Alarion 8.96 3:28:31 127 23:16 2.58 ir
17/08/17 116 Guntis.Balodis 10.36 1:04:15 06:12 9.67
17/08/17 Sietiņiezis... takas, meži, kalni kļučiks 13.20 1:19:20 06:00 9.98 ir
17/08/17 No darba vitaminka D 5.75 26:49 144 04:39 12.87 ir
17/08/17 aer villijs78 5.51 30:01 157 05:26 11.01 ir
17/08/17 Piečuks mežā pēc RW ļembasta, 19:30 personaskods 6.06 42:41 139 07:02 8.52 ir
17/08/17 Ceturtdienis Rainy777 4.00 30:00 07:30 8.00 ir
17/08/17 i500 x8; 3 un 2 min Flrx 9.00 41:37 04:37 12.98 ir
17/08/17 Pie Uzvaras līduma Pičuks Dz 3.00 19:59 06:39 9.01
17/08/17 W16Q2 anciite 10.00 1:01:08 06:06 9.81 ir
17/08/17 galvas izvēdināšana Krustnagliņa 4.33 26:54 159 06:12 9.66 ir
17/08/17 1,4 vladis99 5.32 29:56 149 05:37 10.66 ir
17/08/17 NRR 54 lerychv 8.54 45:43 125 05:21 11.21 ir
17/08/17 run JānisV 10.10 45:32 144 04:30 13.31 ir
17/08/17 Veselības apļi stadionā Ogre voļda 8.00 29:40 03:42 16.18 ir
17/08/17 Kamēr visi bija projām Heņča 8.60 43:43 05:05 11.80 ir
17/08/17 Iesildīšanās+atsildīšanās stadionā Ogrē voļda 2.72 15:13 05:35 10.73 ir
17/08/17 vakariņš normundiņš 11.11 1:11:00 158 06:23 9.39 ir
17/08/17 Rogaina modelis Rāznā, +28C sola.scriptura 8.96 3:28:17 135 23:14 2.58 ir
17/08/17 Skrienot pēc superkompensācijas Voldžiks 15.00 1:20:00 138 05:20 11.25 ir
17/08/17 takas 230mup Desperado 11.00 1:10:00 06:21 9.43 ir
17/08/17 63 +2............64 arturs.locmelis 14.59 1:09:10 135 04:44 12.66 ir
17/08/17 stadions lynx21 7.00 43:15 06:10 9.71
17/08/17 Skrējiens ar suni (Liepāja - Šķēde - Liepāja) KarlisBumans 20.00 2:05:00 136 06:15 9.60 ir
17/08/17 17.00 Veloceliņš/15km-59:13 vp161 + 5km-18:35 vp177 MAKRO 24.00 1:36:16 160 04:00 14.96 ir
17/08/17 Vakara pikols 4.03 25:52 06:25 9.35
17/08/17 r Millers 6.01 29:28 04:54 12.24 ir
17/08/17 #5 Magnēts. Upesciema dīķi Jekaterina 8.11 1:15:31 148 09:18 6.44 ir
17/08/17 Kkas garāks Sauļuks 15.04 1:27:26 05:48 10.32 ir
17/08/17 Skrējiens DK86 15.00 1:20:00 142 05:20 11.25
17/08/17 Viegls un patīkams skrējiens pēc darba James87 11.00 50:04 139 04:33 13.18 ir
17/08/17 Stīveri Kuks 7.90 38:00 151 04:48 12.47 ir
17/08/17 rits zizis 4.40 32:00 07:16 8.25
17/08/17 15M cumulus 24.14 1:51:53 163 04:38 12.95 ir
17/08/17 ILDSI Kiddy 3.50 24:32 143 07:00 8.56 ir
17/08/17 st. kveks 10.00
17/08/17 Treniņš Nr.25 Ingus84 3.00 17:09 05:43 10.50 ir
17/08/17 Run Jolis 10.32 50:49 04:55 12.18
17/08/17 95.8 -1- Ønske 7.95 48:00 06:02 9.94 ir
17/08/17 69.F1 aivars33 10.00 57:10 05:43 10.50 ir
17/08/17 17. aug marikab 3.20 24:27 07:38 7.85
17/08/17 prieka pēc Špicka 5.80 35:02 06:02 9.93
17/08/17 14:02 Grīziņkalns(12x pret kalnu+200x lecamaukla/+21) GačusSkrunda 9.40 46:28 04:56 12.14 ir
17/08/17 Pēc dežūras Shuma 15.40 1:29:58 141 05:50 10.27 ir
17/08/17 GPS nepareizi kko samērija,tik lēni točna neskrēju Naurītis 10.00 57:36 05:45 10.42 ir
17/08/17 Treniņš Stokholmā sanitina 6.03 47:30 165 07:52 7.62 ir
17/08/17 piemājas mežs neirula 4.33 37:57 138 08:45 6.85 ir
17/08/17 Skrējiens BGIRTS 8.00 37:43 175 04:42 12.73 ir
17/08/17 lēnais pēc traumas Inta Amoliņa 8.17 1:01:37 162 07:32 7.96 ir
17/08/17 Upe (93,5) Aivars 16.05 1:55:48 07:12 8.32 ir
17/08/17 Super Set neomax 8.60 58:26 129 06:47 8.83 ir
17/08/17 laikam jāatsāk trenēties rinaldins 0.61 02:42 04:25 13.56
17/08/17 Skrējiens Miksons 11.30 48:30 04:17 13.98 ir
17/08/17 Ar Elzu uz Dārziņu, pec tam uz Krabīti bunbinja 10.61 1:14:22 07:00 8.56 ir
17/08/17 (82.0) pludmale, taciņas Kampars 7.00 35:23 05:03 11.87
17/08/17 117. Didzis 11.22 ir
17/08/17 Rīta skrējiens ātrais LaimaZ 7.39 42:01 05:41 10.55 ir
17/08/17 Lēnām pēc pulsa no rīta. +23 antra 8.13 1:01:04 146 07:30 7.99 ir
17/08/17 Jxdudh kalvicc94 12.40 1:00:00 04:50 12.40 ir
17/08/17 Skrējiens Klaavs 4.04 23:00 05:41 10.54 ir
17/08/17 Skrējiens Uldis Nipers 6.00 30:07 05:01 11.95
17/08/17 Rīta garais skrējiens ar Jāni Kaimiņu Zilie kalni-Ikšķile-Zilie kalni voļda 15.24 1:23:15 05:27 10.98 ir
17/08/17 Skrējiens sjordzis 8.58 52:12 06:05 9.86 ir
17/08/17 Skrējiens V.A. 6.96 51:58 07:27 8.04
17/08/17 Skrējiens Birkofs 8.32 46:36 05:36 10.71
17/08/17 Rīta skrējiens līdz Ozolniekiem. Ainīc 12.34 1:12:36 134 05:52 10.20 ir
17/08/17 Skrējiens oskarsdamb 8.64 49:21 05:42 10.50 ir
17/08/17 Skrējiens ccuguns 10.72 1:02:47 05:51 10.24 ir
17/08/17 Skrējiens Cundurs 5.11 28:48 05:38 10.65 ir
17/08/17 Skrējiens raraitis 16.03 1:27:28 05:27 11.00 ir
17/08/17 kross uz darbu bunfunk 14.00 59:05 140 04:13 14.22
17/08/17 rīta pikols 8.30 57:38 126 06:56 8.64 ir
17/08/17 Skrējiens Wictoria 14.00 1:14:37 05:19 11.26 ir
17/08/17 kadaga-ādaži-kadaga Baibita43 5.19 37:43 125 07:16 8.26
17/08/17 Skrējiens vitjka 10.50 50:10 04:46 12.56 ir
17/08/17 Rīts, S24 jdex 8.15 50:30 06:11 9.68 ir
17/08/17 Rīta 5 Aruurs 5.00 26:15 05:15 11.43 ir
17/08/17 Labrīt! Mada 8.23 51:38 06:16 9.56 ir
17/08/17 Skrējiens. garaissss 10.45 59:17 130 05:40 10.58 ir
17/08/17 RV72 ONils 5.60 30:58 155 05:31 10.85 ir
16/08/17 Ģimenes skrējiens ar Lauranas ratupavadījumu sm72 6.80 38:33 05:40 10.58 ir
16/08/17 Skrèjiens AgneseGin 5.29 34:15 148 06:28 9.27 ir
16/08/17 Treniņš izbadējies 3.01 15:28 147 05:08 11.68 ir
16/08/17 Treniņš izbadējies 2.52 13:24 150 05:19 11.28 ir
16/08/17 skrējiens ciks 10.33 1:02:23 06:02 9.94 ir
16/08/17 Anglijas meži LindaL 9.36 54:51 05:51 10.24 ir
16/08/17 skrējiens Klinta 8.10 1:06:10 08:10 7.35
16/08/17 Vakara skrējiens Edmunds 7.00 38:43 05:31 10.85 ir
16/08/17 Mazliet ātruma Raitis 13.50 1:03:25 04:41 12.77 ir
16/08/17 Airport road runnerchick 12.00 1:09:44 126 05:48 10.33 ir
16/08/17 trešdiena eees 5.00 32:15 06:27 9.30 ir
16/08/17 Darbs Kaut kas rapo pa roku 3.61 19:02 05:16 11.38 ir
16/08/17 uz vingrošanu flower 1.00 06:51 117 06:51 8.76 ir
16/08/17 Skrējiens. putns 9.01 56:40 06:17 9.54 ir
16/08/17 Cukuriņi pa ceļam skai-tlot-ajs 11.14 1:00:01 05:23 11.14 ir
16/08/17 ... Aļona 8.31 57:29 126 06:55 8.67 ir
16/08/17 1646. Juglas tiltu trail (pelde) Artūro 12.12 1:12:48 06:00 9.99 ir
16/08/17 Skrējiens Marchello89 9.36 45:33 04:51 12.33
16/08/17 Skrējiens RaivisR 12.47 1:09:42 05:35 10.73 ir
16/08/17 vakars alx 15.00 1:12:01 137 04:48 12.50 ir
16/08/17 Uz darbu topinjs 3.61 18:46 05:11 11.54 ir
16/08/17 Skrējiens Lauris 9.47 1:21:14 129 08:34 6.99 ir
16/08/17 Rīts. Mada 5.19 35:18 06:48 8.82 ir
16/08/17 Treniņš Richa_K 1.97 12:42 129 06:26 9.31 ir
16/08/17 Apļi Richa_K 10.80 44:50 161 04:09 14.45 ir
16/08/17 Treniņš Richa_K 2.01 11:55 132 05:55 10.12 ir
16/08/17 Rīts AndrisJ 3.07 18:09 05:54 10.15 ir
16/08/17 vidējie 10 km ar 14 km/h Ugisdatavs 12.80 57:00 145 04:27 13.47 ir
16/08/17 Platania beachside run lvingr 17.00 1:55:00 135 06:45 8.87 ir
16/08/17 Skrējiens Ineta 5.56 40:13 156 07:13 8.30 ir
16/08/17 Vakara sēņošana M257 8.31 49:59 06:00 9.98 ir
16/08/17 Skrējiens pēc darba RobertsR 10.31 46:18 04:29 13.36 ir
16/08/17 Skrējiens Wictoria 10.35 57:55 05:35 10.72 ir
16/08/17 Skrējiens Kļavu Pēteris 12.30 59:24 04:49 12.42 ir
16/08/17 Skrējiens anikka 14.57 1:29:43 06:09 9.74 ir
16/08/17 Skrējiens Lubyz 9.20 54:17 05:54 10.17 ir
16/08/17 Skrējiens Jānis_O 4.33 22:10 05:07 11.72 ir
16/08/17 Skrējiens gudeens 5.01 26:38 05:18 11.29
16/08/17 3km/2km/3x1km+2x1km DS93 15.80 1:03:00 03:59 15.05
16/08/17 1,3 vladis99 3.50 20:13 154 05:46 10.39 ir
16/08/17 DP 217.  Ugis 14.16 1:31:04 155 06:25 9.33 ir
16/08/17 dienas +28 Jhonsons 6.08 30:15 04:58 12.06 ir
16/08/17 Vēlais vakara skrējiens pa veloceliņu un pludmali jestrais 10.17 1:02:43 159 06:10 9.73 ir
16/08/17 mežā Lauma 3.01 19:29 143 06:28 9.27 ir
16/08/17 63 arturs.locmelis 11.23 57:30 124 05:07 11.72 ir
16/08/17 (82.0) pludmale Kampars 4.20 19:08 04:33 13.17
16/08/17 CCC v0.57 (Mežaparks) Džokers 12.00 52:46 134 04:23 13.64 ir
16/08/17 Trešdienis Rainy777 8.10 55:10 06:48 8.81 ir
16/08/17 16.08. thunder man 8.07 46:15 115 05:43 10.47 ir
16/08/17 Skrējiens Valdis.M 7.02 32:29 04:37 12.97 ir
16/08/17 Valmieras skriešanas seriāls - 4 tonusa apļi Laaurappeeterzone 10.80 49:43 04:36 13.03 ir
16/08/17 #29 skrējienpastaiga gan sanāca Zazuuu 3.00 30:16 123 10:05 5.95 ir
16/08/17 Uz supervaroņiem SelfijuPavēlniece 4.00 25:00 06:15 9.60 ir
16/08/17 Pulsa 60' rubernmardom 11.40 59:14 130 05:11 11.55 ir
16/08/17 Lucavsala sigita 5.01 30:13 06:01 9.95 ir
16/08/17 SBK nometne day4 pm ush 6.08 28:26 137 04:40 12.83 ir
16/08/17 SBK nometne day4am ush 6.05 28:59 128 04:47 12.52 ir
16/08/17 Treniņš Misters 13.00 1:04:39 04:58 12.06 ir
16/08/17 pludmale teicamnieks 10.00 ir
16/08/17 Skrējiens Mārtiņš Pakulis 9.19 51:16 05:34 10.76 ir
16/08/17 Skrējiens raitisbe 5.29 29:40 05:36 10.70 ir
16/08/17 3 m - Woodside egiks 2.70 13:57 05:10 11.61 ir
16/08/17 7 miles ( 2 m - 6 m - 3 m ) egiks 11.26 53:21 04:44 12.67 ir
16/08/17 Woodside - 2 m . egiks 2.50 12:12 04:52 12.30 ir
16/08/17 Skrējiens AlteR-EgO 11.86 55:21 04:40 12.86
16/08/17 Skrējiens guntars.bumans 11.46 1:07:24 05:52 10.20
16/08/17 Skrējiens otto 16.04 1:15:44 04:43 12.71
16/08/17 Skrējiens Klaavs.v 7.09 38:33 05:26 11.04 ir
16/08/17 Skrējiens daceviksne 10.03 1:01:16 06:06 9.82
16/08/17 Skrējiens kasparsk 9.00 52:05 05:47 10.37 ir
16/08/17 Skrējiens MartinsOzolins 13.81 1:21:18 05:53 10.19 ir
16/08/17 Skrējiens uzzy 1.78 09:15 05:11 11.55 ir
16/08/17 Skrējiens Maiznieks 11.21 1:16:31 06:49 8.79
16/08/17 Skrējiens Baibamk 3.03 22:29 07:25 8.09
16/08/17 Skrējiens alisevitola 8.90 57:25 06:27 9.30
16/08/17 Skrējiens AgrisN 8.52 50:01 05:52 10.22
16/08/17 Skrējiens Stalte 7.01 50:51 07:15 8.27 ir
16/08/17 Skrējiens mozgovoj ribak 30.25 2:20:08 04:37 12.95 ir
16/08/17 Skrējiens EvijaTaurene 5.23 31:54 06:05 9.84 ir
16/08/17 Skrējiens EvijaTaurene 6.37 40:22 06:20 9.47 ir
16/08/17 Skrējiens Zakevics 6.60 34:41 05:15 11.42
16/08/17 Orientēšanās Neijs 8.15 54:33 06:41 8.96 ir
16/08/17 Skrējiens Valdis.M 5.50 25:20 04:36 13.03 ir
16/08/17 Skrējiens Azveja 6.62 36:50 05:33 10.78 ir
16/08/17 Skrējiens FonMareks 10.59 51:29 04:51 12.34 ir
16/08/17 īsais spruuds 6.00 32:56 132 05:29 10.93
16/08/17 Skrējiens Mairita 8.30 54:38 06:34 9.12
16/08/17 Skrējiens chunka 5.50 38:56 126 07:04 8.48 ir
16/08/17 Skrējiens gustavs720 4.02 28:26 07:04 8.48
16/08/17 Skrējiens raraitis 17.07 1:42:47 06:01 9.96 ir
16/08/17 Skrējiens edžus11 8.01 41:08 05:08 11.68 ir
16/08/17 Skrējiens Zipcis 11.00 1:00:09 05:28 10.97 ir
16/08/17 Skrējiens Ita 10.01 1:01:42 06:09 9.73 ir
16/08/17 Skrējiens I_V 9.26 56:51 06:08 9.77 ir
16/08/17 Skrējiens des 4.35 23:24 05:22 11.15 ir
16/08/17 Skrējiens vl80 7.15 43:18 140 06:03 9.91 ir
16/08/17 Skrējiens PaulEdgecomb 5.30 31:56 06:01 9.96
16/08/17 Skrējiens JanJ 10.15 51:44 05:05 11.77
16/08/17 Skrējiens RiKa 11.41 54:20 04:45 12.60
16/08/17 Skrējiens RiKa 8.23 54:27 06:36 9.07
16/08/17 Skrējiens RiKa 9.50 41:32 04:22 13.72
16/08/17 Skrējiens RiKa 1.75 10:17 05:52 10.21
16/08/17 Orientēšanās maaris_m 8.13 51:19 06:18 9.51 ir
16/08/17 Skrējiens xorix 4.11 21:00 05:06 11.74 ir
16/08/17 Skrējiens AivisP 7.16 38:56 05:26 11.03 ir
16/08/17 Skrējiens rmamedov 17.04 1:43:37 06:04 9.87 ir
16/08/17 Skrējiens experc 8.05 58:02 07:12 8.32 ir
16/08/17 Skrējiens ZZ88 9.22 54:20 05:53 10.18 ir
16/08/17 Skrējiens Laur26 8.00 45:35 05:41 10.53
16/08/17 M-7-2 Arweed 6.89 41:07 135 05:58 10.05 ir
16/08/17 Skrējiens Jaudinieks 25.01 2:24:11 05:45 10.41 ir
16/08/17 Skrējiens a2kat 4.01 19:58 04:58 12.05
16/08/17 Skrējiens sīdžejs 10.40 1:02:35 06:01 9.97
16/08/17 Skrējiens didzzzons 12.35 57:37 04:39 12.86
16/08/17 piecpirkstiņi zandarts 14.07 1:30:17 136 06:25 9.35 ir
16/08/17 Skrējiens archs 16.00 1:19:30 04:58 12.08
16/08/17 Skrējiens ŽagarsĢ 11.02 58:00 05:15 11.40 ir
16/08/17 Skrējiens oskarsdamb 7.59 45:09 05:56 10.09 ir
16/08/17 Skrējiens anup 8.00 43:52 05:29 10.94 ir
16/08/17 Skrējiens Rudix 3.50 16:10 04:37 12.99 ir
16/08/17 pārmaiņus tempa skrējiens tomick 14.00 1:06:38 158 04:45 12.61 ir
16/08/17 21.00.Lēnais MAKRO 14.00 1:09:35 04:58 12.07 ir
16/08/17 139.treniņš Daiguciitis 9.74 1:18:21 08:02 7.46 ir
16/08/17 Uz māju Cassandra 10.03 59:38 05:56 10.09 ir
16/08/17 pa stadionu; nācās atlikt ātruma treniņu Flrx 6.00 29:49 04:58 12.07 ir
16/08/17 Pilsētā, kurā piedzimst vējš Cassandra 6.10 37:32 06:09 9.75 ir
16/08/17 līdz Kenedija pieturai un atpakaļ a-anna 11.14 1:03:49 05:43 10.47 ir
16/08/17 Pļavnieku vēlais.21:23 ErvinsK 10.02 1:09:09 06:54 8.69 ir
16/08/17 (88.5) Daugavmala (Dienvvidu un Salu tilts Aivars703 14.80 1:36:36 139 06:31 9.19 ir
16/08/17 SBK abragciems nr.3 nometne alushox 6.08 28:18 148 04:39 12.89 ir
16/08/17 SBK abragciems nr.3 nometne alushox 6.08 28:59 149 04:46 12.59 ir
16/08/17 Medības 89: XXIV Jay-P 10.49 1:00:00 138 05:43 10.49 ir
16/08/17 Pa asfaltētu ielu Pičuks Dz 2.90 20:25 07:02 8.52
16/08/17 Skrējiens Duuu-da 12.40 1:16:31 06:10 9.72 ir
16/08/17 Agrais rīta skrējiens pirms darba James87 11.50 48:50 149 04:14 14.13 ir
16/08/17 Skrējiens emis 5.25 29:09 05:33 10.81
16/08/17 Alle hop Arle 13.48 1:42:36 161 07:36 7.88 ir
16/08/17 Tik cik divām govīm ragi riebīgais 3.30 17:58 05:26 11.02 ir
16/08/17 Skrējiens Dubultaģente 15.27 1:40:55 141 06:36 9.08 ir
16/08/17 Jūrmala: 4 km iesild.skr. + 10 x (400m tempā + 400m lēni) + 2 km atsild. skr. KarlisBumans 14.00 1:21:44 152 05:50 10.28 ir
16/08/17 Trešdienas stadiona treniņš noris 12.25 1:05:08 05:19 11.28 ir
16/08/17 Orientēšanās - Magnēts Priedainē. Hiēna 6.62 58:19 08:48 6.81 ir
16/08/17 Skrējceliņš JA 3.37 20:00 05:56 10.11
16/08/17 Skrējiens Evija Miglane 13.16 1:27:25 06:38 9.03 ir
16/08/17 Mežaparks Ina 8.00 58:21 151 07:17 8.23 ir
16/08/17 Divplākšņi Lasma3 6.00 40:50 152 06:48 8.82 ir
16/08/17 civilizēti, bez putekļiem:) purene_vulgaris (parasta) 6.79 43:08 144 06:21 9.45 ir
16/08/17 run JānisV 5.05 26:49 126 05:18 11.30 ir
16/08/17 Treniņš p.sintija 11.31 1:02:45 05:32 10.81 ir
16/08/17 Skrējiens borga 10.69 1:00:00 149 05:36 10.69 ir
16/08/17 Skrējiens MartaK 9.50 58:11 163 06:07 9.80
16/08/17 uz darbu Rasels 12.90 1:07:10 125 05:12 11.52 ir
16/08/17 Skrējiens ildziite 7.51 42:54 05:42 10.50
16/08/17 Ar smagām kājām pēc kārtīga tupiena. No darba uz darbu. Didzo 3.69 21:11 05:44 10.45 ir
16/08/17 153. ilvarito 6.71 36:04 05:22 11.16 ir
16/08/17 Skrējiens 14.00 1:06:29 04:44 12.63 ir
16/08/17 4pamatsk-tŗvetes i-ātrie muskulītis 3.40 20:26 151 06:00 9.98 ir
16/08/17 Mazliet ai-jucis 12.01 1:26:38 155 07:12 8.32 ir
16/08/17 Divplākšņu 217.koptreniņš gar Šampi pa kalniem Rozamunde 11.00 1:14:07 06:44 8.90 ir
16/08/17 neplānotais vakara maziņais stjopachio 5.07 25:08 113 04:57 12.10 ir
16/08/17 kross bunfunk 16.00 1:09:20 133 04:20 13.85
16/08/17 Pirms krēslas cauri pļavām Jānis_v 8.10 44:58 127 05:33 10.81 ir
16/08/17 Magnētā ar Lenartu un mazliet vēl ildze 4.00 28:00 07:00 8.57 ir
16/08/17 skrēijens DServ 11.06 56:01 05:03 11.85 ir
16/08/17 Valmieras Vieglatlētikas kluba 16.Skriešanas seriāls/Daliņa stad,21.kārta rotācijukaraliene 5.40 28:12 05:13 11.49 ir
16/08/17 Apkārt parkam Ivars L 5.27 30:12 154 05:43 10.47
16/08/17 Valmieras Vieglatlētikas kluba 16.Skriešanas seriāls/Daliņa stad,21.kārta laacis1981 10.80 48:12 04:27 13.44 ir
16/08/17 Paskrien 0:40h easy pace GintsB 7.07 40:19 117 05:42 10.52 ir
16/08/17 Atpakaļ vecās sliedēs :D Gīča 14.00 1:04:45 149 04:37 12.97
16/08/17 Trešdienis _Edgars_ 21.10 1:33:55 04:27 13.48 ir
16/08/17 ļoti mazliet rinaldins 0.76 03:07 04:06 14.63
16/08/17 Skrējiens runner-arrnis 6.00 25:56 150 04:19 13.88 ir
16/08/17 #171. JurBer 9.57 1:18:23 127 08:11 7.33 ir
16/08/17 Magnēts, Priedaine, 21B Regulus 7.45 43:14 05:48 10.34 ir
16/08/17 pa Skābekļa aleju un apkārt Ozolnieku dīķim + pelde Diddi 10.01 1:04:31 06:26 9.31 ir
16/08/17 Kaut kā neskrējās Ginchaa 10.10 1:10:25 130 06:58 8.61
16/08/17 long run puuce 23.10 2:01:17 138 05:15 11.43 ir
16/08/17 Vakara skrējiens ugis_v 3.00 16:53 135 05:37 10.66 ir
16/08/17 auksti no rīta lelde 4.20 39:00 09:17 6.46 ir
16/08/17 NRR 53 lerychv 8.16 48:09 114 05:54 10.17 ir
16/08/17 m js79 5.00 ir
16/08/17 st. kveks 11.00
16/08/17 uz mājām, trenkājot putnus priekšpēdējā kilometrā Lielkuilis 12.41 1:03:39 05:07 11.70 ir
16/08/17 Magnēts 59#, Priedaine LPD 8.06 58:32 166 07:15 8.26 ir
16/08/17 uz darbu #102 Lielkuilis 11.48 57:35 05:00 11.96 ir
16/08/17 Druskucītis Sauļuks 4.34 24:40 05:41 10.56 ir
16/08/17 Asfalts Dzo 21.60 1:47:30 140 04:58 12.06 ir
16/08/17 24*Dienvidu tilts 2x +Ziepčiks Rozens 20.00 1:55:23 135 05:46 10.40
16/08/17 Ozolnieku apļi IlzeP 5.00 34:18 06:51 8.75 ir
16/08/17 Lēni un bez steigas Sveta32 5.41 33:22 06:10 9.73
16/08/17 Atsildīšanās voļda 1.16 06:12 05:20 11.23 ir
16/08/17 Dienas garais treniņš Zilie kalni+trepes voļda 9.27 40:10 04:19 13.85 ir
16/08/17 Treniņš katarakt 7.00 40:55 05:50 10.26
16/08/17 q Millers 6.32 32:22 05:07 11.72 ir
16/08/17 Apkārt Ķesterciemam RimantsL 8.02 46:37 05:48 10.32 ir
16/08/17 Barefoot run ansiso 2.00 ir
16/08/17 Drills, strides. Moderate run @4:10 including 6x60m short sprints uphill, ansiso 6.50 ir
16/08/17 vakara j pikols 7.07 1:00:09 138 08:30 7.05
16/08/17 tren. Girts76 10.10 56:53 05:37 10.65 ir
16/08/17 Pēc darba,pa Kadagas mežiem Naurītis 12.50 1:05:39 05:15 11.42 ir
16/08/17 Darbā ar vingrinājumiem Naurītis 5.16 38:07 07:23 8.12 ir
16/08/17 Treniņš Nr.24 Ingus84 3.00 16:58 05:39 10.61 ir
16/08/17 Basām Jūrmalā einmed 23.34 2:31:50 125 06:30 9.22 ir
16/08/17 Suņskrējiens july 8.20 53:21 06:30 9.22 ir
16/08/17 15.27M cumulus 24.57 1:57:04 155 04:45 12.59 ir
16/08/17 NBT r 2 K-ens 5.88 43:17 07:21 8.15 ir
16/08/17 95.5 -2- Ønske 10.73 1:04:00 05:57 10.06 ir
16/08/17 Pusdienās: puse no garā. :) bantiite 9.83 56:51 05:46 10.37 ir
16/08/17 Ķestrciems. Pludmale sergejs1 9.15 1:01:25 06:42 8.94 ir
16/08/17 rīts zizis 9.00 1:00:00 06:40 9.00
16/08/17 Treniņš andis.deze 12.00 54:44 04:33 13.15 ir
16/08/17 prieka pēc Špicka 5.10 35:03 06:52 8.73
16/08/17 skrējiens Kalnu Dace 8.00 1:03:50 125 07:58 7.52 ir
16/08/17 trenins gintsp 3.11 19:08 06:09 9.75 ir
16/08/17 ... in 5.79 40:23 06:58 8.60 ir
16/08/17 11:45 Ogres Zilie kalni(+20) GačusSkrunda 20.00 1:45:04 05:15 11.42 ir
16/08/17 Skrējiens Otomere 15.44 1:26:34 05:36 10.70 ir
16/08/17 3diena Gatis.K 10.70 1:11:31 127 06:41 8.98 ir
16/08/17 Pēcpusdiena OreMan 4.40 24:31 05:34 10.77 ir
16/08/17 11.00.Veloceliņš/20x300m +100m lēni kopā 8km-31:04 vp163 MAKRO 15.00 1:03:35 146 04:14 14.15 ir
16/08/17 Morning Free neomax 13.22 1:25:02 134 06:25 9.33 ir
16/08/17 Upe (93,2) Aivars 17.21 2:02:02 07:05 8.46 ir
16/08/17 Djdjjdjd kalvicc94 10.20 45:00 04:24 13.60 ir
16/08/17 Rīta skrējiens Krī 6.02 35:25 05:52 10.20 ir
16/08/17 Ar ratiem nois 3.01 21:29 07:08 8.41 ir
16/08/17 atvaļinājums Lote 5.37 33:25 06:13 9.64 ir
16/08/17 Āgenskalns Juve 4.70 24:31 05:12 11.50
16/08/17 Skrējiens mtiger 12.00 57:27 148 04:47 12.53 ir
16/08/17 Paātrinājos Heņča 5.40 27:15 05:02 11.89 ir
16/08/17 No rīta Maikijs 10.01 1:00:56 06:05 9.86 ir
16/08/17 Rīta skrējiens Lielvārdē Dainis 2.48 16:00 06:27 9.30 ir
16/08/17 basais transports uz darbu stjopachio 5.31 25:31 127 04:48 12.49 ir
16/08/17 skrējiens garaissss 10.45 59:55 145 05:44 10.46 ir
16/08/17 (82.0) pludmale Kampars 7.10 38:17 05:23 11.13
16/08/17 Skrējiens. vitjka 3.86 18:44 04:51 12.36 ir
16/08/17 Skrējiens johaidi 6.96 38:49 05:34 10.76 ir
16/08/17 Skrējiens Ievinja 4.44 30:55 06:57 8.62 ir
16/08/17 Skrējiens KarīnaK 10.03 1:01:39 06:08 9.76 ir
16/08/17 Skrējiens AijaB 5.80 31:47 05:28 10.95 ir
16/08/17 Skrējiens Bubu 10.08 51:48 05:08 11.68 ir
16/08/17 Skrējiens Birkofs 8.39 45:10 05:23 11.15
16/08/17 Skrējiens druupijs 16.07 1:23:51 05:13 11.50 ir
16/08/17 Skrējiens bukss_a 4.40 26:53 06:06 9.82
16/08/17 Skrējiens Uldis Nipers 4.70 24:00 05:06 11.75
16/08/17 cik ātri skrien četrkājainās vāveres? aiaiaigar 21.12 1:44:56 04:58 12.08 ir
16/08/17 #80 Dzidriņas - Līči Jekaterina 8.72 57:59 140 06:38 9.02 ir
16/08/17 Rīts Ainars 10.00 48:00 04:48 12.50 ir
16/08/17 Rīta skrējiens DK86 12.00 1:05:00 144 05:25 11.08
16/08/17 Running Aivysuperman 5.01 28:34 05:42 10.52 ir
16/08/17 rīta pikols 10.51 1:10:58 129 06:45 8.89 ir
16/08/17 Patīkami vēsie rīta intervāli stadionā - 4*(400m+300m+200m) OreMan 13.00 1:02:52 04:50 12.41 ir
16/08/17 Rīts jdex 8.14 50:53 06:15 9.60 ir
16/08/17 Rīta vetrasputns 15.00 1:31:44 139 06:06 9.81 ir
16/08/17 piecpadsmitais ZaNelke 8.04 55:39 158 06:55 8.67
16/08/17 Rītiņš normundiņš 5.46 36:45 147 06:43 8.91 ir
15/08/17 Deglava tilta cilpas sm72 9.83 55:37 05:39 10.60 ir
15/08/17 Skrējiens EmilsE 6.92 45:55 06:38 9.04 ir
15/08/17 Vasaras vakars Ultralapsa 7.01 41:30 138 05:55 10.13 ir
15/08/17 Skrèjiens AgneseGin 10.02 1:04:19 147 06:25 9.35 ir
15/08/17 Diena bez sastregumiem! Freya 7.30 50:34 06:55 8.66 ir
15/08/17 Skrējiens Kru 8.82 45:01 05:06 11.76 ir
15/08/17 Skrējiens piile 8.00 50:00 06:15 9.60
15/08/17 Treniņš izbadējies 2.75 12:42 04:37 12.99 ir
15/08/17 Treniņš izbadējies 3.01 16:56 137 05:37 10.67 ir
15/08/17 Vakars līdz Raudai un atpakaļ englishteacher 8.00 40:51 05:06 11.75 ir
15/08/17 Tempo Epsom LindaL 11.02 58:59 05:21 11.21 ir
15/08/17 skrējiens Klinta 5.10 41:54 08:12 7.30
15/08/17 Vakara skrējiens Edmunds 5.70 31:18 05:29 10.93 ir
15/08/17 mežaparks viesis 15.10 1:25:42 139 05:40 10.57 ir
15/08/17 Airport road village loop runnerchick 15.00 1:23:30 125 05:34 10.78 ir
15/08/17 otrdiena eees 5.05 32:23 06:24 9.36 ir
15/08/17 Darbs. Jānis uzdzen ātrumu. Kaut kas rapo pa roku 3.94 18:13 04:37 12.98 ir
15/08/17 OK Arona Jāņukalns flower 10.44 2:05:19 125 12:00 5.00 ir
15/08/17 Skrējiens Sikais77 10.15 55:16 05:26 11.02 ir
15/08/17 Pa Rīgu Dana Rone 6.47 00:22 00:03 1058.73
15/08/17 ... Aļona 11.02 1:12:43 138 06:35 9.09 ir
15/08/17 Fun DzeniferaZ 2.00 18:00 09:00 6.67 ir
15/08/17 Centrs Juoņs 5.88 34:09 05:48 10.33 ir
15/08/17 15.08 jurdoms 8.01 57:05 133 07:07 8.42
15/08/17 Uz darbu topinjs 3.61 19:06 05:17 11.34 ir
15/08/17 Rīta rosme alex1255 4.32 28:33 124 06:36 9.08 ir
15/08/17 Rīts Andrupenē AndrisJ 3.09 18:41 06:02 9.92 ir
15/08/17 tāpat Ugisdatavs 9.00 46:20 135 05:08 11.65 ir
15/08/17 2-diena kerija 6.00 34:59 05:49 10.29 ir
15/08/17 09:30, XXIII Maraton „Solidarności” Dziņa 42.20 3:49:40 05:26 11.02 ir
15/08/17 Skrējiens Wictoria 22.00 1:58:56 05:24 11.10 ir
15/08/17 Skrējiens Andromeda 4.65 34:10 07:20 8.17 ir
15/08/17 Skrējiens Jānis_O 2.14 11:00 05:08 11.67 ir
15/08/17 Kaplis ruu 4.86 28:35 05:52 10.20 ir
15/08/17 Stadions. Intervāli ar vingrinājumiem Māris91 9.15 1:34:51 135 10:21 5.79 ir
15/08/17 Gdanskas maratons aicis 42.20 3:39:15 05:11 11.55 ir
15/08/17 Rēzekne shumite 8.72 48:00 154 05:30 10.90
15/08/17 Liepāja-Grobiņa jestrais 12.45 1:24:39 139 06:47 8.82 ir
15/08/17 Otrdienis Rainy777 3.00 23:00 07:40 7.83 ir
15/08/17 15.08. thunder man 10.15 53:31 128 05:16 11.38 ir
15/08/17 Skrējiens ccuguns 8.21 56:25 06:52 8.73 ir
15/08/17 SBK nometne day3 pm ush 6.06 29:38 04:53 12.27 ir
15/08/17 SBK nometne day3 am ush 6.07 28:31 127 04:41 12.77 ir
15/08/17 Skrējiens Kadzhus 6.38 52:55 08:17 7.23
15/08/17 Nāc izvējoties Liepājā! (108. koptreniņš) spruuds 11.00 52:33 04:46 12.56
15/08/17 Forši un tīri labi spintiņi James87 13.10 51:14 03:54 15.34 ir
15/08/17 Skrējiens didzzzons 8.52 38:35 04:31 13.25
15/08/17 SBK abragciems nr.3 nometne alushox 6.03 29:07 147 04:49 12.43 ir
15/08/17 SBK abragciems nr.3 nometne alushox 6.06 27:54 154 04:36 13.03 ir
15/08/17 Vakara intervāli. Didzo 8.19 46:21 05:39 10.60 ir
15/08/17 skrēijens DServ 11.16 59:37 05:20 11.23 ir
15/08/17 Recovery+walking ansiso 4.00 ir
15/08/17 Кросс zlojtrolj 8.00 48:00 06:00 10.00 ir
15/08/17 100*5 Renee 3.88 29:45 141 07:40 7.83
15/08/17 rits zizis 4.30 33:00 07:40 7.82
15/08/17 atsildīšanās Kalnu Dace 1.00 08:50 08:50 6.79 ir
15/08/17 10x riepa Kalnu Dace 2.20 18:22 08:20 7.19 ir
15/08/17 iesildīšanās Kalnu Dace 1.00 07:45 07:45 7.74 ir
15/08/17 iesild. 8x500/500 atsild. bunfunk 13.00 53:05 140 04:05 14.69
15/08/17 W13D86 / arSievu#034 oldys34 12.34 1:18:20 141 06:20 9.45 ir
15/08/17 15.08 didzisc 6.00 36:05 146 06:00 9.98 ir
15/08/17 Vakara sēņošana M257 8.00 47:22 05:55 10.13 ir
15/08/17 Treniņš Misters 7.36 40:16 05:28 10.97 ir
15/08/17 3 intervāli Natthe 7.91 48:25 147 06:07 9.80 ir
15/08/17 Skrējiens maaris_m 4.82 30:14 06:16 9.57 ir
15/08/17 Skrējiens ramiism 10.03 56:32 05:38 10.65 ir
15/08/17 Orientēšanās armands l 6.51 40:02 06:08 9.76
15/08/17 Skrējiens PaulEdgecomb 12.57 1:11:11 05:39 10.60
15/08/17 Otrdienis _Edgars_ 15.25 1:13:23 04:48 12.47 ir
15/08/17 Kauguros vakarā ar Romanu pa baso gar jūru Spāre lido 5.09 29:00 151 05:41 10.53 ir
15/08/17 tempiņš pa 3-kupru kamieli un taisne gar slimnīcu x5 drafts 13.11 1:09:06 158 05:16 11.38 ir
15/08/17 Skrējiens DS93 10.00 45:00 04:30 13.33
15/08/17 Skrējiens DS93 11.00 58:00 05:16 11.38
15/08/17 Skrējiens 1kt. Laaurappeeterzone 9.05 50:06 151 05:32 10.84 ir
15/08/17 gazele 42 Mazzinsh 9.25 48:12 05:12 11.51
15/08/17 uz treniņu un atpakaļ Guna 5.61 40:02 07:08 8.41 ir
15/08/17 M-7-1 Arweed 9.72 49:44 05:06 11.73 ir
15/08/17 Easy one Viktoriinii 5.83 26:47 04:35 13.06 ir
15/08/17 Atsākam. Draugos ar pulsu. EvijaK 8.31 1:01:24 07:23 8.12
15/08/17 adidas runners | RIGA forshais1 6.55 38:38 05:53 10.17 ir
15/08/17 ..jauna nedēļa..atslodze.. :) galateja 12.66 1:25:05 06:43 8.93 ir
15/08/17 Skrējiens PriekaPuļķis 8.16 43:43 05:21 11.20 ir
15/08/17 Skrējiens PriekaPuļķis 2.01 10:37 05:16 11.36 ir
15/08/17 Skrējiens SandisC 10.39 57:48 05:33 10.79 ir
15/08/17 Skrējiens pūcīte 5.07 31:56 06:17 9.53 ir
15/08/17 Līču pļava bro 7.83 55:31 07:05 8.46 ir
15/08/17 Skrējiens mriden 12.01 1:12:56 06:04 9.88
15/08/17 Pēc banāniem des 3.00 17:20 05:46 10.38 ir
15/08/17 Skrējiens priedza 8.05 47:27 05:53 10.18
15/08/17 Skrējiens edžus11 8.01 38:32 04:48 12.47 ir
15/08/17 Kājās jūt velo svētdienu LindeM 7.30 40:03 144 05:29 10.94 ir
15/08/17 Skrējiens I_V 10.21 50:43 04:58 12.08 ir
15/08/17 Skrējiens Rudix 8.00 45:40 05:42 10.51 ir
15/08/17 Skrējiens Klaavs.v 5.00 24:31 04:54 12.24 ir
15/08/17 Skrējiens ZZ88 11.70 1:08:14 05:49 10.29 ir
15/08/17 Skrējiens Slowloris 5.61 37:49 06:44 8.90
15/08/17 Skrējiens Anncce 6.21 37:22 06:01 9.97
15/08/17 Skrējiens uzzy 4.23 20:52 04:55 12.16 ir
15/08/17 Skrējiens gurchii 11.52 1:12:05 06:15 9.59 ir
15/08/17 Skrējiens VējaMorts 6.01 35:25 05:53 10.18 ir
15/08/17 Skrējiens linda023 5.01 34:48 06:56 8.64 ir
15/08/17 Skrējiens dzelksnite 6.60 42:58 06:30 9.22 ir
15/08/17 Skrējiens Ievinja 8.08 50:55 06:18 9.52 ir
15/08/17 Skrējiens Highlanders 5.01 24:06 04:48 12.47 ir
15/08/17 Skrējiens Logins 11.71 1:28:49 144 07:35 7.91 ir
15/08/17 Skrējiens migors 14.15 1:26:52 06:08 9.77
15/08/17 Skrējiens Bubu 14.00 1:21:12 05:48 10.34 ir
15/08/17 Skrējiens rmamedov 15.17 1:32:16 06:04 9.86 ir
15/08/17 Skrējiens Piiraadzinjsh 12.06 1:15:24 06:15 9.60
15/08/17 Skrējiens experc 12.40 1:04:51 05:13 11.47 ir
15/08/17 Skrējiens anup 7.00 37:43 05:23 11.14 ir
15/08/17 Skrējiens Casperr 17.03 1:19:35 04:40 12.84 ir
15/08/17 Skrējiens Lubyz 11.73 1:08:16 05:49 10.31 ir
15/08/17 Skrējiens guntars.bumans 10.01 1:02:09 06:12 9.66
15/08/17 Skrējiens alisevitola 10.01 1:04:48 06:28 9.27
15/08/17 Skrējiens agnijs 11.52 1:02:54 05:27 10.99
15/08/17 Skrējiens Mairita 6.09 38:03 06:14 9.60
15/08/17 Skrējiens Jurgis_Klav 5.40 27:01 05:00 11.99
15/08/17 Krosiņš tomick 15.06 1:15:30 143 05:00 11.97 ir
15/08/17 Skrējiens archs 14.00 1:20:23 05:44 10.45
15/08/17 Skrējiens MartinsOzolins 8.90 58:17 06:32 9.16 ir
15/08/17 Skrējiens daskilla 10.23 58:12 05:41 10.55 ir
15/08/17 Skrējiens vl80 10.41 1:00:52 139 05:50 10.26 ir
15/08/17 138.treniņš Daiguciitis 7.02 45:42 06:30 9.22 ir
15/08/17 Skrējiens Janile 10.04 54:22 05:24 11.08
15/08/17 Skrējiens JanJ 13.04 1:10:16 05:23 11.13
15/08/17 Skrējiens zetto 6.04 29:03 04:48 12.48 ir
15/08/17 Skrējiens AlteR-EgO 15.12 1:17:03 05:05 11.77
15/08/17 Skrējiens Zigis 9.39 55:46 05:56 10.10
15/08/17 Skrējiens andronkuls 2.31 12:32 05:25 11.06 ir
15/08/17 Skrējiens andronkuls 6.08 26:58 04:26 13.53 ir
15/08/17 Skrējiens andronkuls 2.35 12:16 05:13 11.49 ir
15/08/17 Skrējiens ezisskrien 12.30 1:03:27 05:09 11.63 ir
15/08/17 Skrējiens Ignatjev 4.38 31:04 07:05 8.46
15/08/17 Skrējiens raraitis 17.04 1:28:36 05:11 11.54 ir
15/08/17 Skrējiens AgrisN 3.34 18:30 05:32 10.83
15/08/17 Skrējiens AgrisN 2.22 12:32 05:38 10.63
15/08/17 Skrējiens NITRO 6.26 32:52 05:15 11.43 ir
15/08/17 Imanta - Lidosta (DHL) Valdis.M 5.48 23:48 04:20 13.82 ir
15/08/17 Lidosta (DHL ) - Imanta 4 Valdis.M 7.05 31:22 04:26 13.49 ir
15/08/17 Skrējiens AijaB 5.80 32:15 05:33 10.79 ir
15/08/17 Skrējiens Dubultaģente 12.66 1:22:29 147 06:30 9.21 ir
15/08/17 Otrdienas mierīgais + sprintiņi noris 11.24 57:56 05:09 11.64 ir
15/08/17 Skrējiens RiKa 11.43 54:21 04:45 12.62
15/08/17 Skrējiens RiKa 8.22 53:12 06:28 9.27
15/08/17 Skrējiens xorix 4.32 23:14 05:22 11.16 ir
15/08/17 Medības 89: XXIII Jay-P 4.17 24:00 130 05:45 10.43 ir
15/08/17 Koptreniņš "Nāc izvējoties Liepājā" + mājas darbs. Ginc 18.24 1:52:36 06:10 9.72 ir
15/08/17 Uz papeldēšanu seismologs 8.19 44:20 05:24 11.08 ir
15/08/17 Pinķu gurķītis ilZZuks 6.40 45:00 07:01 8.53 ir
15/08/17 Koptreniņš "Nāc izvējoties Liepājā" KarlisBumans 10.00 1:00:35 138 06:03 9.90 ir
15/08/17 skrējiens 08/1 Magnēts 58.kārta sturitis 10.87 1:23:00 07:38 7.86 ir
15/08/17 Vēls skrējiens riebīgais 3.30 17:50 05:24 11.10 ir
15/08/17 Skaistā Liepāja EduardsRu 7.01 42:52 06:06 9.81
15/08/17 Skrējiens Duuu-da 12.00 1:16:11 06:20 9.45 ir
15/08/17 116. Didzis 12.32 ir
15/08/17 #28 pēc plāna 5x500/500 + iesild. un atsild km Zazuuu 7.00 42:04 150 06:00 9.98 ir
15/08/17 11.40 km zvaigzne 11.40 1:04:00 05:36 10.69 ir
15/08/17 Skrējiens Roberto 5 13.01 1:01:21 04:42 12.72
15/08/17 Skrējiens buraam 8.40 51:09 06:05 9.85 ir
15/08/17 Cjcjd kalvicc94 12.08 1:00:00 04:58 12.08 ir
15/08/17 Jdjdd kalvicc94 10.32 50:00 04:50 12.38 ir
15/08/17 Magnēts Rasels 7.00 42:40 153 06:05 9.84 ir
15/08/17 sarkandavgava+mezpark a-kodejs 10.75 55:09 05:07 11.70 ir
15/08/17 Vakars Naurītis 4.05 25:04 06:11 9.69 ir
15/08/17 Otrdienis ar Adidas runners. SelfijuPavēlniece 17.00 1:43:30 156 06:05 9.86 ir
15/08/17 Vakara skrējiens: Mazie int. Rupucis_ 12.00 1:10:58 05:54 10.15
15/08/17 šosis Rainers 10.01 57:38 05:45 10.42 ir
15/08/17 Poļu armijas diena. 1.vieta Naurītis 10.00 36:30 03:39 16.44 ir
15/08/17 Iesildīšanās Naurītis 2.00 11:16 05:38 10.65 ir
15/08/17 Treniņš Nr.23 Ingus84 3.00 17:08 05:42 10.51 ir
15/08/17 Koptreniņš "Nāc izvējoties Liepājā!". Uldzha 11.24 1:05:26 05:49 10.31 ir
15/08/17 Pa Beberbeķu kalniņiem. 6x - 3x lejā un 3x augšā pa stāvumiņu. +22 antra 7.57 52:56 180 06:59 8.58 ir
15/08/17 Super vakars apkārt MB caur Ā, 20:00 personaskods 15.12 1:31:30 150 06:03 9.91 ir
15/08/17 Atsild. vetrasputns 2.00 15:22 137 07:41 7.81 ir
15/08/17 Bolderāja vetrasputns 7.20 40:40 160 05:38 10.62 ir
15/08/17 Iesild. vetrasputns 3.01 18:20 142 06:05 9.85 ir
15/08/17 mazie dzīves prieciņi Flrx 6.00 31:04 05:10 11.59 ir
15/08/17 Skrejiens - grass VP13 5.28 26:37 05:02 11.90 ir
15/08/17 152. ilvarito 13.01 57:04 04:23 13.68 ir
15/08/17 Skrējiens eziits 5.21 33:27 135 06:25 9.35 ir
15/08/17 105 - #adidasrunners otrdiena zusurs 10.00 58:22 05:50 10.28 ir
15/08/17 63 +1 arturs.locmelis 11.81 59:28 128 05:02 11.92 ir
15/08/17 Cepešpanna! bantiite 9.90 54:58 148 05:33 10.81 ir
15/08/17 Ar AR Rozamunde 10.02 1:00:36 06:02 9.92 ir
15/08/17 Kad saule rotājās Lauma 7.01 42:22 142 06:02 9.93 ir
15/08/17 Koptreniņš Liepājā VilnisV 10.04 1:05:02 127 06:28 9.26 ir
15/08/17 Adidas Runners Riga koptreniņš GačusSkrunda 10.50 57:01 05:25 11.05 ir
15/08/17 40/20 20x stjopachio 11.14 51:50 135 04:39 12.90 ir
15/08/17 run JānisV 15.55 1:14:57 144 04:49 12.45 ir
15/08/17 Oslo ar Agni Ewiaa 8.01 48:41 06:04 9.87 ir
15/08/17 19.00.Atjaunošanās skrējiens MAKRO 14.00 1:08:36 04:54 12.24 ir
15/08/17 tilti 1+10 bredato 11.01 47:23 160 04:18 13.94 ir
15/08/17 Mans aplis adjutants 10.33 58:58 136 05:42 10.51 ir
15/08/17 Otrdiena, pēc 7.km nobeidzās pulsometrs Ginchaa 13.39 1:28:46 130 06:37 9.05
15/08/17 W17Q1 anciite 8.73 52:52 06:03 9.91 ir
15/08/17 gatavojamies Ilze1409 9.60
15/08/17 Bigauņciems Krustnagliņa 10.04 1:01:34 06:07 9.78 ir
15/08/17 treniņš LEICHA 15.00 1:40:42 06:42 8.94
15/08/17 Skrējiens 12.00 57:40 04:48 12.49 ir
15/08/17 Apkārt parkam un 3.apļi ap stadionu Ivars L 5.18 29:21 05:39 10.59
15/08/17 VR Apaļais 3.01 14:08 04:41 12.78 ir
15/08/17 (82.0) pludmale Kampars 8.20 37:04 04:31 13.27
15/08/17 1,2 vladis99 4.61 26:20 149 05:42 10.50 ir
15/08/17 Skrējiens guntisb 10.00 55:06 05:30 10.89 ir
15/08/17 21* Ziepčiks(74.5) Rozens 12.00 1:09:59 125 05:49 10.29
15/08/17 Basām Jaunmārupē ar sievu einmed 6.02 50:38 107 08:24 7.13 ir
15/08/17 zk otrd19 maruks 10.00 55:40 136 05:34 10.78
15/08/17 Skrējiens borga 15.04 1:21:20 156 05:24 11.10 ir
15/08/17 Skrējiens runner-arrnis 7.00 32:45 137 04:40 12.82 ir
15/08/17 #170. JurBer 9.39 1:13:43 126 07:51 7.64 ir
15/08/17 Pa meža ceļu Pičuks Dz 3.00 19:43 06:34 9.13
15/08/17 Ļoti lēni Heņča 1.00 09:59 09:59 6.01 ir
15/08/17 12:10-11:59-12:02-10:54 andris13 11.02 47:06 04:16 14.04 ir
15/08/17 Pēcpusdiena Maikijs 10.05 1:01:40 06:08 9.78 ir
15/08/17 Asfalts Dzo 18.00 1:25:16 04:44 12.67 ir
15/08/17 Izkustējos ivitis 5.00 28:42 05:44 10.45
15/08/17 Skrējiens Zix 3.18 17:29 05:29 10.91 ir
15/08/17 Svēte zirnis 7.09 38:30 05:25 11.05 ir
15/08/17 Stīveri Kuks 7.80 42:00 136 05:23 11.14 ir
15/08/17 Iesildīšanās pirms peldēšanās IlzeP 5.90 37:43 06:23 9.39 ir
15/08/17 Sākam nedēļu Raitis 13.00 1:08:07 05:14 11.45 ir
15/08/17 Skrējiens + VFS DK86 8.00 40:00 147 05:00 12.00
15/08/17 Ierastais Šmerļa meža aplītis Sauļuks 5.31 32:34 06:07 9.78 ir
15/08/17 Rīts laukos ildze 5.30 31:30 05:56 10.10 ir
15/08/17 Rīta lēnais - saullēktā un miglā! Ewis 5.30 43:12 155 08:09 7.36 ir
15/08/17 Laiski uzreiz pēc darba Jānis_v 6.80 38:31 125 05:39 10.59 ir
15/08/17 st. kveks 10.00
15/08/17 95.9 -1-a Ønske 9.21 54:00 05:51 10.23 ir
15/08/17 Run Jolis 10.07 50:32 05:01 11.96
15/08/17 Besis šodien, un ne tika skriešanā :(. Gīča 6.00 29:53 132 04:58 12.05
15/08/17 Ziedoņdarzā Andrejs 6.54 29:42 04:32 13.21 ir
15/08/17 pusdienlaiks Elsi 7.70
15/08/17 CCC v0.56 (Sigulda) (+740) Džokers 18.00 1:42:45 05:42 10.51 ir
15/08/17 Mezaparka 8 intervali gasha 8.00 40:10 130 05:01 11.95 ir
15/08/17 tr/d munkirs 7.25 41:43 144 05:45 10.43 ir
15/08/17 Ilūkstes mežā neirula 22.26 2:55:58 156 07:54 7.59 ir
15/08/17 Skrējiens Guna 11.04 1:10:48 06:24 9.36 ir
15/08/17 Rīta skrējiens pēc ballītes vitaminka D 3.50 19:12 05:29 10.94 ir
15/08/17 Adaptācija Balsta aparāts neomax 17.00 1:51:41 137 06:34 9.13 ir
15/08/17 Ar Elziñu uz Gymnastics club un šūpoties bunbinja 5.62 42:28 07:33 7.94 ir
15/08/17 Sagurušas kājas - Oslo Ewiaa 11.11 1:07:32 142 06:04 9.87 ir
15/08/17 Upe (92,5) Aivars 17.23 1:59:00 06:54 8.69 ir
15/08/17 treniņš Aigarsol 6.50 29:00 04:27 13.45
15/08/17 Brūnais putns uz ceļa. Hiēna 2.69 19:12 07:08 8.41 ir
15/08/17 11:49 Arkādijas Stadions(10×400m ātri caur 400m izripināt+150× lecamaukla/+20) GačusSkrunda 11.05 51:07 04:37 12.97 ir
15/08/17 11.00.Veloceliņš/40x100m ritmiski+200m aerobs,kopā 12km-47:41 vp159 MAKRO 20.00 1:25:48 145 04:17 13.99 ir
15/08/17 Transportēšanās. Jūra un šoseja. Didzo 7.02 38:36 05:29 10.91 ir
15/08/17 Uz darbu, pie bērniem. #53 (Pašsavaldības kontrole) Didzo 2.39 13:33 05:40 10.58 ir
15/08/17 Cauri miglas plīvuram. Smilšpapīrs. Didzo 8.22 54:36 06:38 9.03 ir
15/08/17 Ogresgals. Stadions. Johny 10.21 47:20 04:38 12.94 ir
15/08/17 ... Raibacainais Ezītis 17.31 1:38:13 05:40 10.57 ir
15/08/17 tipu tapu GintsK 20.30 2:13:53 06:35 9.10 ir
15/08/17 Skrējiens Chuncha 10.00 55:26 05:32 10.82 ir
15/08/17 Noo rīta līdz Volvo hallei. biciic 7.36 38:54 05:17 11.35 ir
15/08/17 Skrējiens Shuma 17.10 1:40:27 139 05:52 10.21 ir
15/08/17 Skrējiens mtiger 15.01 1:18:04 134 05:12 11.54 ir
15/08/17 2diena ar Kristapu Gatis.K 11.10 1:01:59 132 05:35 10.74 ir
15/08/17 Kokneses prospekts Raitis58 6.71 41:12 06:08 9.77 ir
15/08/17 (81.5) pludmale Kampars 11.10 1:01:07 05:30 10.90
15/08/17 Skrējiens Otomere 16.23 1:31:30 05:38 10.64 ir
15/08/17 Mežaparks Ina 8.71 1:07:23 148 07:44 7.76 ir
15/08/17 Tempa skrējiens Beris 6.61 46:10 139 06:59 8.59 ir
15/08/17 Rīta skrējiens Nica, karsti LaimaZ 8.03 48:35 06:03 9.92 ir
15/08/17 zilo debesu rīts purene_vulgaris (parasta) 12.10 1:22:02 141 06:46 8.85 ir
15/08/17 Ar suneni Ecadla 1.55 06:48 04:23 13.68 ir
15/08/17 Skrējiens. vitjka 10.50 49:41 04:43 12.68 ir
15/08/17 Skrējiens MIk 6.94 47:13 06:48 8.82 ir
15/08/17 Skrējiens Uldis Nipers 5.12 26:33 05:11 11.57
15/08/17 Zante IntaN 6.00 38:00 06:20 9.47 ir
15/08/17 Skrējiens KarīnaK 12.15 1:14:38 06:08 9.77 ir
15/08/17 Skrējiens Jaudinieks 13.10 1:11:12 05:26 11.04 ir
15/08/17 Skrējiens frišais 3.47 19:26 05:36 10.71 ir
15/08/17 pēc Rīgas triatlona mierīgi kļučiks 6.31 37:58 06:01 9.97 ir
15/08/17 Skrējiens Cundurs 5.14 27:29 05:20 11.22 ir
15/08/17 Skrējiens Dora 5.03 39:09 07:46 7.71 ir
15/08/17 Running Aivysuperman 4.68 28:33 06:06 9.84 ir
15/08/17 #79 Dzidriņas Jekaterina 6.65 39:45 153 05:58 10.04 ir
15/08/17 kross uz darbu bunfunk 8.50 37:30 128 04:24 13.60
15/08/17 NRR 52 lerychv 9.89 48:03 130 04:51 12.35 ir
15/08/17 3.8 und 3.80 18:00 04:44 12.67 ir
15/08/17 pa S andris13 11.11 52:07 04:41 12.79 ir
15/08/17 rīta pikols 7.44 50:58 126 06:51 8.76 ir
15/08/17 Rīta 6 Aruurs 6.00 30:52 05:08 11.66 ir
15/08/17 Skrējiens. garaissss 10.45 59:23 137 05:40 10.56 ir
15/08/17 Rīts jdex 8.12 49:51 06:08 9.77 ir
15/08/17 kadaga-ādaži-kadaga Baibita43 4.63 32:33 125 07:01 8.53
15/08/17 10M cumulus 16.10 1:16:00 162 04:43 12.71 ir
15/08/17 Rītiņš normundiņš 5.67 37:54 146 06:41 8.98 ir
15/08/17 2x3.2 caur10 StonkaD 11.22 1:03:56 05:41 10.53